Time,TemperatureF,DewpointF,PressureIn,WindDirection,WindDirectionDegrees,WindSpeedMPH,WindSpeedGustMPH,Humidity,HourlyPrecipIn,Conditions,Clouds,dailyrainin,SolarRadiationWatts/m^2,SoftwareType,DateUTC
2013-01-14 00:02:00,9.9,6.3,30.36,NW,308,2.0,2.0,85,0.00,,,0.00,0,Wunderground v.1.15,2013-01-14 06:02:00,
2013-01-14 00:03:00,9.9,6.3,30.36,NW,308,1.0,2.0,85,0.00,,,0.00,0,Wunderground v.1.15,2013-01-14 06:03:00,
2013-01-14 00:05:00,9.8,6.2,30.36,NW,308,1.0,2.0,85,0.00,,,0.00,0,Wunderground v.1.15,2013-01-14 06:05:00,
2013-01-14 00:06:00,9.8,6.2,30.36,NW,308,1.0,2.0,85,0.00,,,0.00,0,Wunderground v.1.15,2013-01-14 06:06:00,
2013-01-14 00:12:00,9.3,5.4,30.36,NW,308,0.0,1.0,84,0.00,,,0.00,0,Wunderground v.1.15,2013-01-14 06:12:00,
2013-01-14 00:14:00,9.0,5.4,30.36,NW,308,0.0,1.0,85,0.00,,,0.00,0,Wunderground v.1.15,2013-01-14 06:14:00,
2013-01-14 00:15:00,8.9,5.3,30.36,NW,308,0.0,1.0,85,0.00,,,0.00,0,Wunderground v.1.15,2013-01-14 06:15:00,
2013-01-14 00:17:00,8.8,5.2,30.36,NW,308,0.0,1.0,85,0.00,,,0.00,0,Wunderground v.1.15,2013-01-14 06:17:00,
2013-01-14 00:20:00,8.7,5.1,30.36,NW,308,0.0,0.0,85,0.00,,,0.00,0,Wunderground v.1.15,2013-01-14 06:20:00,
2013-01-14 00:25:00,8.7,5.4,30.36,NW,308,0.0,0.0,86,0.00,,,0.00,0,Wunderground v.1.15,2013-01-14 06:25:00,
2013-01-14 00:26:00,8.7,5.4,30.36,NW,308,0.0,0.0,86,0.00,,,0.00,0,Wunderground v.1.15,2013-01-14 06:26:00,
2013-01-14 00:28:00,9.0,5.7,30.36,NW,308,0.0,0.0,86,0.00,,,0.00,0,Wunderground v.1.15,2013-01-14 06:28:00,
2013-01-14 00:30:00,9.1,5.8,30.35,NW,308,0.0,0.0,86,0.00,,,0.00,0,Wunderground v.1.15,2013-01-14 06:30:00,
2013-01-14 00:31:00,9.1,5.8,30.35,NW,308,0.0,0.0,86,0.00,,,0.00,0,Wunderground v.1.15,2013-01-14 06:31:00,
2013-01-14 00:32:00,9.2,5.9,30.35,NW,308,0.0,0.0,86,0.00,,,0.00,0,Wunderground v.1.15,2013-01-14 06:32:00,
2013-01-14 00:36:00,9.1,5.8,30.36,NW,308,0.0,0.0,86,0.00,,,0.00,0,Wunderground v.1.15,2013-01-14 06:36:00,
2013-01-14 00:38:00,9.0,5.7,30.36,NW,308,0.0,0.0,86,0.00,,,0.00,0,Wunderground v.1.15,2013-01-14 06:38:00,
2013-01-14 00:40:00,9.0,5.7,30.36,NW,308,0.0,0.0,86,0.00,,,0.00,0,Wunderground v.1.15,2013-01-14 06:40:00,
2013-01-14 00:41:00,9.0,5.7,30.36,NW,308,0.0,0.0,86,0.00,,,0.00,0,Wunderground v.1.15,2013-01-14 06:41:00,
2013-01-14 00:43:00,9.0,5.7,30.36,NW,308,0.0,0.0,86,0.00,,,0.00,0,Wunderground v.1.15,2013-01-14 06:43:00,
2013-01-14 00:45:00,9.0,5.7,30.36,NW,308,0.0,0.0,86,0.00,,,0.00,0,Wunderground v.1.15,2013-01-14 06:45:00,
2013-01-14 00:47:00,9.1,5.8,30.36,NW,308,0.0,0.0,86,0.00,,,0.00,0,Wunderground v.1.15,2013-01-14 06:47:00,
2013-01-14 00:48:00,9.1,5.8,30.36,NW,308,0.0,0.0,86,0.00,,,0.00,0,Wunderground v.1.15,2013-01-14 06:48:00,
2013-01-14 00:51:00,9.1,5.8,30.36,NW,308,1.0,1.0,86,0.00,,,0.00,0,Wunderground v.1.15,2013-01-14 06:51:00,
2013-01-14 00:53:00,9.1,5.8,30.36,NW,308,1.0,1.0,86,0.00,,,0.00,0,Wunderground v.1.15,2013-01-14 06:53:00,
2013-01-14 00:54:00,9.1,5.8,30.36,NW,308,1.0,1.0,86,0.00,,,0.00,0,Wunderground v.1.15,2013-01-14 06:54:00,
2013-01-14 00:57:00,9.2,5.9,30.36,NW,308,1.0,1.0,86,0.00,,,0.00,0,Wunderground v.1.15,2013-01-14 06:57:00,
2013-01-14 00:58:00,9.2,5.9,30.36,NW,308,2.0,2.0,86,0.00,,,0.00,0,Wunderground v.1.15,2013-01-14 06:58:00,
2013-01-14 01:00:00,9.2,5.9,30.36,NW,308,1.0,1.0,86,0.00,,,0.00,0,Wunderground v.1.15,2013-01-14 07:00:00,
2013-01-14 01:03:00,9.2,5.9,30.36,NW,308,0.0,1.0,86,0.00,,,0.00,0,Wunderground v.1.15,2013-01-14 07:03:00,
2013-01-14 01:04:00,9.2,5.9,30.36,NW,308,0.0,1.0,86,0.00,,,0.00,0,Wunderground v.1.15,2013-01-14 07:04:00,
2013-01-14 01:05:00,9.2,5.9,30.36,NW,308,0.0,1.0,86,0.00,,,0.00,0,Wunderground v.1.15,2013-01-14 07:05:00,
2013-01-14 01:10:00,9.1,5.8,30.36,NW,308,0.0,0.0,86,0.00,,,0.00,0,Wunderground v.1.15,2013-01-14 07:10:00,
2013-01-14 01:11:00,9.0,5.7,30.36,NW,308,0.0,0.0,86,0.00,,,0.00,0,Wunderground v.1.15,2013-01-14 07:11:00,
2013-01-14 01:12:00,9.0,5.7,30.36,NW,308,0.0,0.0,86,0.00,,,0.00,0,Wunderground v.1.15,2013-01-14 07:12:00,
2013-01-14 01:14:00,8.9,5.6,30.36,NW,308,0.0,0.0,86,0.00,,,0.00,0,Wunderground v.1.15,2013-01-14 07:14:00,
2013-01-14 01:16:00,8.9,5.6,30.36,NW,308,0.0,0.0,86,0.00,,,0.00,0,Wunderground v.1.15,2013-01-14 07:16:00,
2013-01-14 01:18:00,8.9,5.6,30.36,NW,308,0.0,0.0,86,0.00,,,0.00,0,Wunderground v.1.15,2013-01-14 07:18:00,
2013-01-14 01:19:00,8.8,5.5,30.36,NW,308,0.0,0.0,86,0.00,,,0.00,0,Wunderground v.1.15,2013-01-14 07:19:00,
2013-01-14 01:24:00,8.9,5.8,30.36,NW,308,0.0,0.0,87,0.00,,,0.00,0,Wunderground v.1.15,2013-01-14 07:24:00,
2013-01-14 01:25:00,8.9,5.8,30.36,NW,308,0.0,0.0,87,0.00,,,0.00,0,Wunderground v.1.15,2013-01-14 07:25:00,
2013-01-14 01:27:00,8.9,5.8,30.36,NW,308,0.0,0.0,87,0.00,,,0.00,0,Wunderground v.1.15,2013-01-14 07:27:00,
2013-01-14 01:29:00,9.0,5.7,30.36,NW,308,1.0,1.0,86,0.00,,,0.00,0,Wunderground v.1.15,2013-01-14 07:29:00,
2013-01-14 01:31:00,9.0,5.9,30.36,NW,308,2.0,2.0,87,0.00,,,0.00,0,Wunderground v.1.15,2013-01-14 07:31:00,
2013-01-14 01:32:00,9.1,6.0,30.36,NW,308,1.0,2.0,87,0.00,,,0.00,0,Wunderground v.1.15,2013-01-14 07:32:00,
2013-01-14 01:34:00,9.1,6.0,30.36,NW,308,1.0,2.0,87,0.00,,,0.00,0,Wunderground v.1.15,2013-01-14 07:34:00,
2013-01-14 01:38:00,9.0,5.7,30.36,NW,308,1.0,2.0,86,0.00,,,0.00,0,Wunderground v.1.15,2013-01-14 07:38:00,
2013-01-14 01:42:00,8.8,5.5,30.36,NW,308,1.0,1.0,86,0.00,,,0.00,0,Wunderground v.1.15,2013-01-14 07:42:00,
2013-01-14 01:44:00,8.7,5.4,30.36,NW,308,1.0,1.0,86,0.00,,,0.00,0,Wunderground v.1.15,2013-01-14 07:44:00,
2013-01-14 01:46:00,8.7,5.4,30.36,NW,308,0.0,1.0,86,0.00,,,0.00,0,Wunderground v.1.15,2013-01-14 07:46:00,
2013-01-14 01:48:00,8.7,5.4,30.36,NW,308,1.0,1.0,86,0.00,,,0.00,0,Wunderground v.1.15,2013-01-14 07:48:00,
2013-01-14 01:51:00,8.6,5.3,30.36,NW,308,1.0,1.0,86,0.00,,,0.00,0,Wunderground v.1.15,2013-01-14 07:51:00,
2013-01-14 01:52:00,8.6,5.3,30.36,NW,308,1.0,1.0,86,0.00,,,0.00,0,Wunderground v.1.15,2013-01-14 07:52:00,
2013-01-14 01:57:00,8.7,5.4,30.36,NW,308,2.0,2.0,86,0.00,,,0.00,0,Wunderground v.1.15,2013-01-14 07:57:00,
2013-01-14 01:59:00,8.8,5.5,30.37,NW,308,2.0,2.0,86,0.00,,,0.00,0,Wunderground v.1.15,2013-01-14 07:59:00,
2013-01-14 02:02:00,8.9,5.6,30.37,NW,308,1.0,2.0,86,0.00,,,0.00,0,Wunderground v.1.15,2013-01-14 08:02:00,
2013-01-14 02:03:00,8.9,5.6,30.37,NW,308,2.0,2.0,86,0.00,,,0.00,0,Wunderground v.1.15,2013-01-14 08:03:00,
2013-01-14 02:05:00,8.8,5.5,30.37,NW,308,2.0,2.0,86,0.00,,,0.00,0,Wunderground v.1.15,2013-01-14 08:05:00,
2013-01-14 02:08:00,8.9,5.6,30.37,NW,308,1.0,2.0,86,0.00,,,0.00,0,Wunderground v.1.15,2013-01-14 08:08:00,
2013-01-14 02:11:00,9.0,5.7,30.37,NW,308,1.0,2.0,86,0.00,,,0.00,0,Wunderground v.1.15,2013-01-14 08:11:00,
2013-01-14 02:13:00,9.1,5.8,30.37,NW,308,1.0,2.0,86,0.00,,,0.00,0,Wunderground v.1.15,2013-01-14 08:13:00,
2013-01-14 02:14:00,9.1,5.8,30.37,NW,308,2.0,2.0,86,0.00,,,0.00,0,Wunderground v.1.15,2013-01-14 08:14:00,
2013-01-14 02:15:00,9.2,5.9,30.38,NW,308,1.0,2.0,86,0.00,,,0.00,0,Wunderground v.1.15,2013-01-14 08:15:00,
2013-01-14 02:17:00,9.3,6.0,30.38,NW,308,1.0,2.0,86,0.00,,,0.00,0,Wunderground v.1.15,2013-01-14 08:17:00,
2013-01-14 02:19:00,9.3,6.0,30.38,NW,308,2.0,2.0,86,0.00,,,0.00,0,Wunderground v.1.15,2013-01-14 08:19:00,
2013-01-14 02:20:00,9.4,6.1,30.38,NW,308,2.0,2.0,86,0.00,,,0.00,0,Wunderground v.1.15,2013-01-14 08:20:00,
2013-01-14 02:21:00,9.4,6.1,30.38,NW,308,2.0,3.0,86,0.00,,,0.00,0,Wunderground v.1.15,2013-01-14 08:21:00,
2013-01-14 02:25:00,9.5,6.2,30.39,NW,308,1.0,3.0,86,0.00,,,0.00,0,Wunderground v.1.15,2013-01-14 08:25:00,
2013-01-14 02:28:00,9.4,6.1,30.39,NW,308,0.0,3.0,86,0.00,,,0.00,0,Wunderground v.1.15,2013-01-14 08:28:00,
2013-01-14 02:30:00,9.4,6.1,30.39,NW,308,0.0,1.0,86,0.00,,,0.00,0,Wunderground v.1.15,2013-01-14 08:30:00,
2013-01-14 02:31:00,9.4,6.1,30.39,NW,308,0.0,1.0,86,0.00,,,0.00,0,Wunderground v.1.15,2013-01-14 08:31:00,
2013-01-14 02:36:00,9.1,5.8,30.39,NW,308,0.0,1.0,86,0.00,,,0.00,0,Wunderground v.1.15,2013-01-14 08:36:00,
2013-01-14 02:38:00,9.0,5.7,30.39,NW,308,0.0,1.0,86,0.00,,,0.00,0,Wunderground v.1.15,2013-01-14 08:38:00,
2013-01-14 02:39:00,9.0,5.7,30.39,NW,308,1.0,1.0,86,0.00,,,0.00,0,Wunderground v.1.15,2013-01-14 08:39:00,
2013-01-14 02:41:00,9.1,5.8,30.39,NW,308,0.0,0.0,86,0.00,,,0.00,0,Wunderground v.1.15,2013-01-14 08:41:00,
2013-01-14 02:43:00,9.2,5.9,30.40,NW,308,2.0,2.0,86,0.00,,,0.00,0,Wunderground v.1.15,2013-01-14 08:43:00,
2013-01-14 02:44:00,9.2,5.9,30.40,NW,308,0.0,2.0,86,0.00,,,0.00,0,Wunderground v.1.15,2013-01-14 08:44:00,
2013-01-14 02:45:00,9.3,6.0,30.39,NW,308,2.0,2.0,86,0.00,,,0.00,0,Wunderground v.1.15,2013-01-14 08:45:00,
2013-01-14 02:49:00,9.2,5.9,30.40,NW,308,0.0,2.0,86,0.00,,,0.00,0,Wunderground v.1.15,2013-01-14 08:49:00,
2013-01-14 02:50:00,9.2,5.6,30.40,NW,308,0.0,0.0,85,0.00,,,0.00,0,Wunderground v.1.15,2013-01-14 08:50:00,
2013-01-14 02:52:00,9.1,5.5,30.40,NW,308,0.0,0.0,85,0.00,,,0.00,0,Wunderground v.1.15,2013-01-14 08:52:00,
2013-01-14 02:54:00,9.0,5.4,30.40,NW,308,0.0,0.0,85,0.00,,,0.00,0,Wunderground v.1.15,2013-01-14 08:54:00,
2013-01-14 02:55:00,9.0,5.4,30.40,NW,308,0.0,0.0,85,0.00,,,0.00,0,Wunderground v.1.15,2013-01-14 08:55:00,
2013-01-14 02:57:00,8.9,5.3,30.40,NW,308,0.0,0.0,85,0.00,,,0.00,0,Wunderground v.1.15,2013-01-14 08:57:00,
2013-01-14 02:58:00,8.9,5.3,30.40,NW,308,0.0,0.0,85,0.00,,,0.00,0,Wunderground v.1.15,2013-01-14 08:58:00,
2013-01-14 03:00:00,8.8,5.5,30.40,NW,308,0.0,0.0,86,0.00,,,0.00,0,Wunderground v.1.15,2013-01-14 09:00:00,
2013-01-14 03:02:00,8.8,5.5,30.41,NW,308,1.0,1.0,86,0.00,,,0.00,0,Wunderground v.1.15,2013-01-14 09:02:00,
2013-01-14 03:03:00,8.8,5.5,30.41,NW,308,1.0,1.0,86,0.00,,,0.00,0,Wunderground v.1.15,2013-01-14 09:03:00,
2013-01-14 03:04:00,8.8,5.5,30.41,NW,308,1.0,1.0,86,0.00,,,0.00,0,Wunderground v.1.15,2013-01-14 09:04:00,
2013-01-14 03:06:00,8.9,5.6,30.41,NW,308,1.0,2.0,86,0.00,,,0.00,0,Wunderground v.1.15,2013-01-14 09:06:00,
2013-01-14 03:07:00,8.9,5.6,30.41,NW,308,1.0,2.0,86,0.00,,,0.00,0,Wunderground v.1.15,2013-01-14 09:07:00,
2013-01-14 03:09:00,8.9,5.6,30.41,NW,308,0.0,2.0,86,0.00,,,0.00,0,Wunderground v.1.15,2013-01-14 09:09:00,
2013-01-14 03:11:00,8.9,5.6,30.41,NW,308,1.0,1.0,86,0.00,,,0.00,0,Wunderground v.1.15,2013-01-14 09:11:00,
2013-01-14 03:16:00,8.9,5.6,30.41,NW,308,2.0,2.0,86,0.00,,,0.00,0,Wunderground v.1.15,2013-01-14 09:16:00,
2013-01-14 03:17:00,8.8,5.5,30.41,NW,308,0.0,2.0,86,0.00,,,0.00,0,Wunderground v.1.15,2013-01-14 09:17:00,
2013-01-14 03:18:00,8.8,5.5,30.41,NW,308,0.0,2.0,86,0.00,,,0.00,0,Wunderground v.1.15,2013-01-14 09:18:00,
2013-01-14 03:22:00,8.8,5.5,30.41,NW,308,0.0,1.0,86,0.00,,,0.00,0,Wunderground v.1.15,2013-01-14 09:22:00,
2013-01-14 03:23:00,8.8,5.5,30.41,NW,308,0.0,1.0,86,0.00,,,0.00,0,Wunderground v.1.15,2013-01-14 09:23:00,
2013-01-14 03:24:00,8.7,5.4,30.41,NW,308,0.0,1.0,86,0.00,,,0.00,0,Wunderground v.1.15,2013-01-14 09:24:00,
2013-01-14 03:28:00,8.4,4.8,30.41,NW,308,0.0,1.0,85,0.00,,,0.00,0,Wunderground v.1.15,2013-01-14 09:28:00,
2013-01-14 03:29:00,8.3,4.7,30.41,NW,308,0.0,1.0,85,0.00,,,0.00,0,Wunderground v.1.15,2013-01-14 09:29:00,
2013-01-14 03:34:00,8.3,5.0,30.41,NW,308,0.0,0.0,86,0.00,,,0.00,0,Wunderground v.1.15,2013-01-14 09:34:00,
2013-01-14 03:35:00,8.3,5.0,30.41,NW,308,0.0,0.0,86,0.00,,,0.00,0,Wunderground v.1.15,2013-01-14 09:35:00,
2013-01-14 03:40:00,8.5,5.2,30.41,NW,308,0.0,0.0,86,0.00,,,0.00,0,Wunderground v.1.15,2013-01-14 09:40:00,
2013-01-14 03:41:00,8.5,5.2,30.41,NW,308,0.0,0.0,86,0.00,,,0.00,0,Wunderground v.1.15,2013-01-14 09:41:00,
2013-01-14 03:46:00,8.5,5.2,30.41,NW,308,0.0,0.0,86,0.00,,,0.00,0,Wunderground v.1.15,2013-01-14 09:46:00,
2013-01-14 03:47:00,8.4,5.1,30.41,NW,308,0.0,0.0,86,0.00,,,0.00,0,Wunderground v.1.15,2013-01-14 09:47:00,
2013-01-14 03:51:00,8.4,5.1,30.41,NW,308,0.0,0.0,86,0.00,,,0.00,0,Wunderground v.1.15,2013-01-14 09:51:00,
2013-01-14 03:53:00,8.5,5.2,30.41,NW,308,0.0,0.0,86,0.00,,,0.00,0,Wunderground v.1.15,2013-01-14 09:53:00,
2013-01-14 03:56:00,8.6,5.3,30.41,NW,308,0.0,0.0,86,0.00,,,0.00,0,Wunderground v.1.15,2013-01-14 09:56:00,
2013-01-14 03:58:00,8.5,5.2,30.41,NW,308,0.0,0.0,86,0.00,,,0.00,0,Wunderground v.1.15,2013-01-14 09:58:00,
2013-01-14 04:00:00,8.4,5.1,30.41,NW,308,0.0,0.0,86,0.00,,,0.00,0,Wunderground v.1.15,2013-01-14 10:00:00,
2013-01-14 04:02:00,8.3,5.0,30.41,NW,308,0.0,0.0,86,0.00,,,0.00,0,Wunderground v.1.15,2013-01-14 10:02:00,
2013-01-14 04:05:00,8.2,4.9,30.41,NW,308,0.0,0.0,86,0.00,,,0.00,0,Wunderground v.1.15,2013-01-14 10:05:00,
2013-01-14 04:06:00,8.1,4.8,30.41,NW,308,0.0,0.0,86,0.00,,,0.00,0,Wunderground v.1.15,2013-01-14 10:06:00,
2013-01-14 04:07:00,8.1,4.8,30.41,NW,308,0.0,0.0,86,0.00,,,0.00,0,Wunderground v.1.15,2013-01-14 10:07:00,
2013-01-14 04:08:00,8.1,4.8,30.41,NW,308,0.0,0.0,86,0.00,,,0.00,0,Wunderground v.1.15,2013-01-14 10:08:00,
2013-01-14 04:11:00,8.1,4.8,30.41,NW,308,0.0,0.0,86,0.00,,,0.00,0,Wunderground v.1.15,2013-01-14 10:11:00,
2013-01-14 04:14:00,8.1,4.8,30.41,NW,308,0.0,0.0,86,0.00,,,0.00,0,Wunderground v.1.15,2013-01-14 10:14:00,
2013-01-14 04:16:00,8.0,4.7,30.41,NW,308,0.0,0.0,86,0.00,,,0.00,0,Wunderground v.1.15,2013-01-14 10:16:00,
2013-01-14 04:18:00,8.0,4.7,30.41,NW,308,0.0,0.0,86,0.00,,,0.00,0,Wunderground v.1.15,2013-01-14 10:18:00,
2013-01-14 04:19:00,8.0,4.7,30.41,NW,308,0.0,0.0,86,0.00,,,0.00,0,Wunderground v.1.15,2013-01-14 10:19:00,
2013-01-14 04:20:00,8.0,4.7,30.41,NW,308,0.0,0.0,86,0.00,,,0.00,0,Wunderground v.1.15,2013-01-14 10:20:00,
2013-01-14 04:21:00,7.9,4.6,30.41,NW,308,0.0,0.0,86,0.00,,,0.00,0,Wunderground v.1.15,2013-01-14 10:21:00,
2013-01-14 04:24:00,7.8,4.5,30.42,NW,308,0.0,0.0,86,0.00,,,0.00,0,Wunderground v.1.15,2013-01-14 10:24:00,
2013-01-14 04:27:00,7.7,4.4,30.41,NW,308,0.0,0.0,86,0.00,,,0.00,0,Wunderground v.1.15,2013-01-14 10:27:00,
2013-01-14 04:28:00,7.7,4.4,30.41,NW,308,0.0,0.0,86,0.00,,,0.00,0,Wunderground v.1.15,2013-01-14 10:28:00,
2013-01-14 04:29:00,7.7,4.4,30.41,NW,308,0.0,0.0,86,0.00,,,0.00,0,Wunderground v.1.15,2013-01-14 10:29:00,
2013-01-14 04:32:00,7.8,4.5,30.41,NW,308,0.0,0.0,86,0.00,,,0.00,0,Wunderground v.1.15,2013-01-14 10:32:00,
2013-01-14 04:33:00,7.7,4.4,30.41,NW,308,0.0,0.0,86,0.00,,,0.00,0,Wunderground v.1.15,2013-01-14 10:33:00,
2013-01-14 04:37:00,7.7,4.4,30.41,NW,308,0.0,0.0,86,0.00,,,0.00,0,Wunderground v.1.15,2013-01-14 10:37:00,
2013-01-14 04:38:00,7.6,4.3,30.41,NW,308,0.0,0.0,86,0.00,,,0.00,0,Wunderground v.1.15,2013-01-14 10:38:00,
2013-01-14 04:39:00,7.6,4.3,30.41,NW,308,0.0,0.0,86,0.00,,,0.00,0,Wunderground v.1.15,2013-01-14 10:39:00,
2013-01-14 04:42:00,7.4,4.1,30.41,NW,308,0.0,0.0,86,0.00,,,0.00,0,Wunderground v.1.15,2013-01-14 10:42:00,
2013-01-14 04:43:00,7.4,4.1,30.41,NW,308,0.0,0.0,86,0.00,,,0.00,0,Wunderground v.1.15,2013-01-14 10:43:00,
2013-01-14 04:44:00,7.4,4.1,30.41,NW,308,0.0,0.0,86,0.00,,,0.00,0,Wunderground v.1.15,2013-01-14 10:44:00,
2013-01-14 04:47:00,7.5,4.2,30.41,NW,308,0.0,0.0,86,0.00,,,0.00,0,Wunderground v.1.15,2013-01-14 10:47:00,
2013-01-14 04:49:00,7.6,4.3,30.41,NW,308,0.0,0.0,86,0.00,,,0.00,0,Wunderground v.1.15,2013-01-14 10:49:00,
2013-01-14 04:50:00,7.6,4.3,30.41,NW,308,0.0,0.0,86,0.00,,,0.00,0,Wunderground v.1.15,2013-01-14 10:50:00,
2013-01-14 04:54:00,7.4,4.1,30.41,NW,308,0.0,0.0,86,0.00,,,0.00,0,Wunderground v.1.15,2013-01-14 10:54:00,
2013-01-14 04:55:00,7.4,4.1,30.41,NW,308,0.0,0.0,86,0.00,,,0.00,0,Wunderground v.1.15,2013-01-14 10:55:00,
2013-01-14 04:57:00,7.3,4.0,30.42,NW,308,0.0,0.0,86,0.00,,,0.00,0,Wunderground v.1.15,2013-01-14 10:57:00,
2013-01-14 04:59:00,7.4,4.3,30.41,NW,308,0.0,0.0,87,0.00,,,0.00,0,Wunderground v.1.15,2013-01-14 10:59:00,
2013-01-14 05:00:00,7.4,4.3,30.41,NW,308,0.0,0.0,87,0.00,,,0.00,0,Wunderground v.1.15,2013-01-14 11:00:00,
2013-01-14 05:01:00,7.4,4.1,30.41,NW,308,0.0,0.0,86,0.00,,,0.00,0,Wunderground v.1.15,2013-01-14 11:01:00,
2013-01-14 05:04:00,7.5,4.2,30.41,NW,308,0.0,0.0,86,0.00,,,0.00,0,Wunderground v.1.15,2013-01-14 11:04:00,
2013-01-14 05:05:00,7.5,4.2,30.41,NW,308,0.0,0.0,86,0.00,,,0.00,0,Wunderground v.1.15,2013-01-14 11:05:00,
2013-01-14 05:07:00,7.5,4.2,30.41,NW,308,0.0,0.0,86,0.00,,,0.00,0,Wunderground v.1.15,2013-01-14 11:07:00,
2013-01-14 05:08:00,7.5,4.2,30.41,NW,308,0.0,0.0,86,0.00,,,0.00,0,Wunderground v.1.15,2013-01-14 11:08:00,
2013-01-14 05:09:00,7.5,4.2,30.41,NW,308,0.0,0.0,86,0.00,,,0.00,0,Wunderground v.1.15,2013-01-14 11:09:00,
2013-01-14 05:12:00,7.6,4.3,30.41,NW,308,0.0,0.0,86,0.00,,,0.00,0,Wunderground v.1.15,2013-01-14 11:12:00,
2013-01-14 05:13:00,7.6,4.3,30.41,NW,308,0.0,0.0,86,0.00,,,0.00,0,Wunderground v.1.15,2013-01-14 11:13:00,
2013-01-14 05:15:00,7.6,4.3,30.41,NW,308,0.0,0.0,86,0.00,,,0.00,0,Wunderground v.1.15,2013-01-14 11:15:00,
2013-01-14 05:18:00,7.6,4.3,30.41,NW,308,0.0,0.0,86,0.00,,,0.00,0,Wunderground v.1.15,2013-01-14 11:18:00,
2013-01-14 05:19:00,7.6,4.3,30.41,NW,308,0.0,0.0,86,0.00,,,0.00,0,Wunderground v.1.15,2013-01-14 11:19:00,
2013-01-14 05:22:00,7.6,4.3,30.41,NW,308,0.0,0.0,86,0.00,,,0.00,0,Wunderground v.1.15,2013-01-14 11:22:00,
2013-01-14 05:24:00,7.6,4.3,30.42,NW,308,0.0,0.0,86,0.00,,,0.00,0,Wunderground v.1.15,2013-01-14 11:24:00,
2013-01-14 05:25:00,7.6,4.3,30.41,NW,308,0.0,0.0,86,0.00,,,0.00,0,Wunderground v.1.15,2013-01-14 11:25:00,
2013-01-14 05:28:00,7.6,4.3,30.41,NW,308,0.0,0.0,86,0.00,,,0.00,0,Wunderground v.1.15,2013-01-14 11:28:00,
2013-01-14 05:30:00,7.6,4.3,30.42,NW,308,0.0,0.0,86,0.00,,,0.00,0,Wunderground v.1.15,2013-01-14 11:30:00,
2013-01-14 05:31:00,7.6,4.3,30.42,NW,308,0.0,0.0,86,0.00,,,0.00,0,Wunderground v.1.15,2013-01-14 11:31:00,
2013-01-14 05:33:00,7.7,4.4,30.42,NW,308,0.0,0.0,86,0.00,,,0.00,0,Wunderground v.1.15,2013-01-14 11:33:00,
2013-01-14 05:34:00,7.7,4.4,30.42,NW,308,0.0,0.0,86,0.00,,,0.00,0,Wunderground v.1.15,2013-01-14 11:34:00,
2013-01-14 05:37:00,7.6,4.3,30.42,NW,308,0.0,0.0,86,0.00,,,0.00,0,Wunderground v.1.15,2013-01-14 11:37:00,
2013-01-14 05:39:00,7.6,4.3,30.42,NW,308,0.0,0.0,86,0.00,,,0.00,0,Wunderground v.1.15,2013-01-14 11:39:00,
2013-01-14 05:42:00,7.7,4.4,30.43,NW,308,0.0,0.0,86,0.00,,,0.00,0,Wunderground v.1.15,2013-01-14 11:42:00,
2013-01-14 05:44:00,7.7,4.4,30.43,NW,308,0.0,0.0,86,0.00,,,0.00,0,Wunderground v.1.15,2013-01-14 11:44:00,
2013-01-14 05:45:00,7.7,4.4,30.43,NW,308,0.0,0.0,86,0.00,,,0.00,0,Wunderground v.1.15,2013-01-14 11:45:00,
2013-01-14 05:47:00,7.8,4.5,30.43,NW,308,0.0,1.0,86,0.00,,,0.00,0,Wunderground v.1.15,2013-01-14 11:47:00,
2013-01-14 05:49:00,7.8,4.5,30.43,NW,308,0.0,1.0,86,0.00,,,0.00,0,Wunderground v.1.15,2013-01-14 11:49:00,
2013-01-14 05:52:00,7.9,4.6,30.43,NW,308,0.0,0.0,86,0.00,,,0.00,0,Wunderground v.1.15,2013-01-14 11:52:00,
2013-01-14 05:53:00,7.9,4.6,30.43,NW,308,0.0,0.0,86,0.00,,,0.00,0,Wunderground v.1.15,2013-01-14 11:53:00,
2013-01-14 05:54:00,8.0,4.7,30.43,NW,308,0.0,0.0,86,0.00,,,0.00,0,Wunderground v.1.15,2013-01-14 11:54:00,
2013-01-14 05:55:00,8.1,4.8,30.43,NW,308,0.0,0.0,86,0.00,,,0.00,0,Wunderground v.1.15,2013-01-14 11:55:00,
2013-01-14 05:58:00,8.1,4.8,30.43,NW,308,0.0,0.0,86,0.00,,,0.00,0,Wunderground v.1.15,2013-01-14 11:58:00,
2013-01-14 05:59:00,8.2,4.9,30.44,NW,308,0.0,0.0,86,0.00,,,0.00,0,Wunderground v.1.15,2013-01-14 11:59:00,
2013-01-14 06:04:00,7.9,4.6,30.44,NW,308,0.0,0.0,86,0.00,,,0.00,0,Wunderground v.1.15,2013-01-14 12:04:00,
2013-01-14 06:05:00,8.0,4.7,30.44,NW,308,0.0,0.0,86,0.00,,,0.00,0,Wunderground v.1.15,2013-01-14 12:05:00,
2013-01-14 06:06:00,8.0,4.7,30.44,NW,308,0.0,0.0,86,0.00,,,0.00,0,Wunderground v.1.15,2013-01-14 12:06:00,
2013-01-14 06:10:00,8.1,4.8,30.44,NW,308,0.0,0.0,86,0.00,,,0.00,0,Wunderground v.1.15,2013-01-14 12:10:00,
2013-01-14 06:11:00,8.1,4.8,30.44,NW,308,0.0,0.0,86,0.00,,,0.00,0,Wunderground v.1.15,2013-01-14 12:11:00,
2013-01-14 06:13:00,8.0,4.7,30.44,NW,308,0.0,0.0,86,0.00,,,0.00,0,Wunderground v.1.15,2013-01-14 12:13:00,
2013-01-14 06:16:00,7.9,4.6,30.44,NW,308,0.0,0.0,86,0.00,,,0.00,0,Wunderground v.1.15,2013-01-14 12:16:00,
2013-01-14 06:17:00,7.8,4.5,30.44,NW,308,0.0,0.0,86,0.00,,,0.00,0,Wunderground v.1.15,2013-01-14 12:17:00,
2013-01-14 06:19:00,7.7,4.4,30.44,NW,308,0.0,0.0,86,0.00,,,0.00,0,Wunderground v.1.15,2013-01-14 12:19:00,
2013-01-14 06:21:00,7.8,4.5,30.44,NW,308,0.0,0.0,86,0.00,,,0.00,0,Wunderground v.1.15,2013-01-14 12:21:00,
2013-01-14 06:23:00,7.9,4.6,30.44,NW,308,0.0,0.0,86,0.00,,,0.00,0,Wunderground v.1.15,2013-01-14 12:23:00,
2013-01-14 06:27:00,8.1,4.8,30.44,NW,308,0.0,0.0,86,0.00,,,0.00,0,Wunderground v.1.15,2013-01-14 12:27:00,
2013-01-14 06:29:00,8.2,4.9,30.44,NW,308,0.0,0.0,86,0.00,,,0.00,0,Wunderground v.1.15,2013-01-14 12:29:00,
2013-01-14 06:30:00,8.2,4.9,30.44,NW,308,0.0,0.0,86,0.00,,,0.00,0,Wunderground v.1.15,2013-01-14 12:30:00,
2013-01-14 06:33:00,8.3,5.0,30.44,NW,308,0.0,1.0,86,0.00,,,0.00,0,Wunderground v.1.15,2013-01-14 12:33:00,
2013-01-14 06:35:00,8.4,5.1,30.44,NW,308,0.0,1.0,86,0.00,,,0.00,0,Wunderground v.1.15,2013-01-14 12:35:00,
2013-01-14 06:36:00,8.4,5.1,30.44,NW,308,0.0,1.0,86,0.00,,,0.00,0,Wunderground v.1.15,2013-01-14 12:36:00,
2013-01-14 06:38:00,8.4,5.1,30.44,NW,308,0.0,1.0,86,0.00,,,0.00,0,Wunderground v.1.15,2013-01-14 12:38:00,
2013-01-14 06:41:00,8.3,5.0,30.44,NW,308,0.0,0.0,86,0.00,,,0.00,0,Wunderground v.1.15,2013-01-14 12:41:00,
2013-01-14 06:43:00,8.2,4.9,30.44,NW,308,0.0,0.0,86,0.00,,,0.00,0,Wunderground v.1.15,2013-01-14 12:43:00,
2013-01-14 06:45:00,8.2,4.9,30.44,NW,308,0.0,0.0,86,0.00,,,0.00,0,Wunderground v.1.15,2013-01-14 12:45:00,
2013-01-14 06:48:00,8.1,4.8,30.44,NW,308,0.0,0.0,86,0.00,,,0.00,0,Wunderground v.1.15,2013-01-14 12:48:00,
2013-01-14 06:49:00,8.1,4.8,30.44,NW,308,0.0,0.0,86,0.00,,,0.00,0,Wunderground v.1.15,2013-01-14 12:49:00,
2013-01-14 06:50:00,8.1,4.8,30.44,NW,308,0.0,0.0,86,0.00,,,0.00,0,Wunderground v.1.15,2013-01-14 12:50:00,
2013-01-14 06:51:00,8.0,4.7,30.44,NW,308,0.0,0.0,86,0.00,,,0.00,0,Wunderground v.1.15,2013-01-14 12:51:00,
2013-01-14 06:53:00,7.8,4.5,30.44,NW,308,0.0,0.0,86,0.00,,,0.00,0,Wunderground v.1.15,2013-01-14 12:53:00,
2013-01-14 06:56:00,7.8,4.5,30.44,NW,308,0.0,0.0,86,0.00,,,0.00,0,Wunderground v.1.15,2013-01-14 12:56:00,
2013-01-14 06:59:00,7.8,4.5,30.44,NW,308,0.0,0.0,86,0.00,,,0.00,0,Wunderground v.1.15,2013-01-14 12:59:00,
2013-01-14 07:01:00,7.7,4.4,30.44,NW,308,0.0,0.0,86,0.00,,,0.00,0,Wunderground v.1.15,2013-01-14 13:01:00,
2013-01-14 07:02:00,7.6,4.3,30.44,NW,308,0.0,0.0,86,0.00,,,0.00,0,Wunderground v.1.15,2013-01-14 13:02:00,
2013-01-14 07:04:00,7.5,4.2,30.45,NW,308,0.0,0.0,86,0.00,,,0.00,0,Wunderground v.1.15,2013-01-14 13:04:00,
2013-01-14 07:07:00,7.4,4.1,30.45,NW,308,0.0,0.0,86,0.00,,,0.00,0,Wunderground v.1.15,2013-01-14 13:07:00,
2013-01-14 07:08:00,7.4,4.1,30.45,NW,308,0.0,0.0,86,0.00,,,0.00,0,Wunderground v.1.15,2013-01-14 13:08:00,
2013-01-14 07:09:00,7.4,4.1,30.45,NW,308,0.0,0.0,86,0.00,,,0.00,0,Wunderground v.1.15,2013-01-14 13:09:00,
2013-01-14 07:12:00,7.5,4.2,30.45,NW,308,0.0,0.0,86,0.00,,,0.00,0,Wunderground v.1.15,2013-01-14 13:12:00,
2013-01-14 07:13:00,7.5,4.4,30.45,NW,308,0.0,0.0,87,0.00,,,0.00,0,Wunderground v.1.15,2013-01-14 13:13:00,
2013-01-14 07:14:00,7.5,4.2,30.45,NW,308,0.0,0.0,86,0.00,,,0.00,0,Wunderground v.1.15,2013-01-14 13:14:00,
2013-01-14 07:15:00,7.5,4.2,30.45,NW,308,0.0,0.0,86,0.00,,,0.00,0,Wunderground v.1.15,2013-01-14 13:15:00,
2013-01-14 07:19:00,7.4,4.1,30.45,NW,308,0.0,0.0,86,0.00,,,0.00,0,Wunderground v.1.15,2013-01-14 13:19:00,
2013-01-14 07:22:00,7.4,4.1,30.45,NW,308,0.0,0.0,86,0.00,,,0.00,0,Wunderground v.1.15,2013-01-14 13:22:00,
2013-01-14 07:25:00,7.4,4.3,30.45,NW,308,0.0,0.0,87,0.00,,,0.00,0,Wunderground v.1.15,2013-01-14 13:25:00,
2013-01-14 07:26:00,7.4,4.3,30.45,NW,308,0.0,0.0,87,0.00,,,0.00,0,Wunderground v.1.15,2013-01-14 13:26:00,
2013-01-14 07:28:00,7.4,4.3,30.45,NW,308,0.0,0.0,87,0.00,,,0.00,0,Wunderground v.1.15,2013-01-14 13:28:00,
2013-01-14 07:29:00,7.4,4.3,30.45,NW,308,0.0,0.0,87,0.00,,,0.00,0,Wunderground v.1.15,2013-01-14 13:29:00,
2013-01-14 07:30:00,7.4,4.3,30.45,NW,308,0.0,0.0,87,0.00,,,0.00,0,Wunderground v.1.15,2013-01-14 13:30:00,
2013-01-14 07:33:00,7.3,4.2,30.45,NW,308,0.0,0.0,87,0.00,,,0.00,0,Wunderground v.1.15,2013-01-14 13:33:00,
2013-01-14 07:34:00,7.3,4.2,30.45,NW,308,0.0,0.0,87,0.00,,,0.00,0,Wunderground v.1.15,2013-01-14 13:34:00,
2013-01-14 07:35:00,7.2,4.1,30.45,NW,308,0.0,0.0,87,0.00,,,0.00,0,Wunderground v.1.15,2013-01-14 13:35:00,
2013-01-14 07:39:00,7.3,4.2,30.45,NW,308,0.0,0.0,87,0.00,,,0.00,5,Wunderground v.1.15,2013-01-14 13:39:00,
2013-01-14 07:41:00,7.3,4.2,30.45,NW,308,0.0,0.0,87,0.00,,,0.00,5,Wunderground v.1.15,2013-01-14 13:41:00,
2013-01-14 07:44:00,7.2,4.1,30.45,NW,308,0.0,0.0,87,0.00,,,0.00,7,Wunderground v.1.15,2013-01-14 13:44:00,
2013-01-14 07:45:00,7.2,4.1,30.45,NW,308,0.0,0.0,87,0.00,,,0.00,7,Wunderground v.1.15,2013-01-14 13:45:00,
2013-01-14 07:47:00,7.2,4.1,30.45,NW,308,0.0,0.0,87,0.00,,,0.00,9,Wunderground v.1.15,2013-01-14 13:47:00,
2013-01-14 07:51:00,7.1,4.0,30.45,NW,308,0.0,0.0,87,0.00,,,0.00,11,Wunderground v.1.15,2013-01-14 13:51:00,
2013-01-14 07:52:00,7.1,4.0,30.45,NW,308,0.0,0.0,87,0.00,,,0.00,11,Wunderground v.1.15,2013-01-14 13:52:00,
2013-01-14 07:53:00,7.1,4.0,30.45,NW,308,0.0,0.0,87,0.00,,,0.00,11,Wunderground v.1.15,2013-01-14 13:53:00,
2013-01-14 07:56:00,7.2,4.1,30.45,NW,308,0.0,0.0,87,0.00,,,0.00,12,Wunderground v.1.15,2013-01-14 13:56:00,
2013-01-14 07:57:00,7.3,4.2,30.46,NW,308,0.0,0.0,87,0.00,,,0.00,14,Wunderground v.1.15,2013-01-14 13:57:00,
2013-01-14 07:58:00,7.4,4.3,30.45,NW,308,0.0,0.0,87,0.00,,,0.00,14,Wunderground v.1.15,2013-01-14 13:58:00,
2013-01-14 07:59:00,7.4,4.3,30.46,NW,308,0.0,0.0,87,0.00,,,0.00,14,Wunderground v.1.15,2013-01-14 13:59:00,
2013-01-14 08:03:00,7.7,4.6,30.46,NW,308,0.0,0.0,87,0.00,,,0.00,18,Wunderground v.1.15,2013-01-14 14:03:00,
2013-01-14 08:04:00,7.8,4.7,30.46,NW,308,0.0,0.0,87,0.00,,,0.00,19,Wunderground v.1.15,2013-01-14 14:04:00,
2013-01-14 08:06:00,7.9,4.8,30.46,NW,308,0.0,0.0,87,0.00,,,0.00,21,Wunderground v.1.15,2013-01-14 14:06:00,
2013-01-14 08:08:00,8.0,4.9,30.46,NW,308,0.0,0.0,87,0.00,,,0.00,23,Wunderground v.1.15,2013-01-14 14:08:00,
2013-01-14 08:09:00,8.0,4.9,30.46,NW,308,0.0,0.0,87,0.00,,,0.00,25,Wunderground v.1.15,2013-01-14 14:09:00,
2013-01-14 08:10:00,7.9,4.8,30.46,NW,308,0.0,0.0,87,0.00,,,0.00,26,Wunderground v.1.15,2013-01-14 14:10:00,
2013-01-14 08:12:00,8.0,4.9,30.46,NW,308,0.0,0.0,87,0.00,,,0.00,28,Wunderground v.1.15,2013-01-14 14:12:00,
2013-01-14 08:15:00,8.1,5.0,30.46,NW,308,0.0,0.0,87,0.00,,,0.00,33,Wunderground v.1.15,2013-01-14 14:15:00,
2013-01-14 08:19:00,8.5,5.4,30.46,NW,308,0.0,0.0,87,0.00,,,0.00,42,Wunderground v.1.15,2013-01-14 14:19:00,
2013-01-14 08:20:00,8.5,5.4,30.46,NW,308,0.0,0.0,87,0.00,,,0.00,44,Wunderground v.1.15,2013-01-14 14:20:00,
2013-01-14 08:23:00,8.9,5.8,30.46,NW,308,0.0,0.0,87,0.00,,,0.00,53,Wunderground v.1.15,2013-01-14 14:23:00,
2013-01-14 08:25:00,9.3,6.2,30.46,NW,308,0.0,0.0,87,0.00,,,0.00,58,Wunderground v.1.15,2013-01-14 14:25:00,
2013-01-14 08:26:00,9.4,6.3,30.46,NW,308,0.0,0.0,87,0.00,,,0.00,60,Wunderground v.1.15,2013-01-14 14:26:00,
2013-01-14 08:28:00,9.6,6.5,30.46,NW,308,0.0,0.0,87,0.00,,,0.00,63,Wunderground v.1.15,2013-01-14 14:28:00,
2013-01-14 08:31:00,9.9,6.8,30.47,NW,308,0.0,0.0,87,0.00,,,0.00,69,Wunderground v.1.15,2013-01-14 14:31:00,
2013-01-14 08:33:00,10.0,6.9,30.46,NW,308,0.0,0.0,87,0.00,,,0.00,74,Wunderground v.1.15,2013-01-14 14:33:00,
2013-01-14 08:34:00,10.1,6.7,30.46,NW,308,0.0,0.0,86,0.00,,,0.00,76,Wunderground v.1.15,2013-01-14 14:34:00,
2013-01-14 08:37:00,10.5,7.4,30.46,NW,308,0.0,0.0,87,0.00,,,0.00,84,Wunderground v.1.15,2013-01-14 14:37:00,
2013-01-14 08:38:00,10.7,7.6,30.47,NW,308,1.0,1.0,87,0.00,,,0.00,86,Wunderground v.1.15,2013-01-14 14:38:00,
2013-01-14 08:39:00,10.7,7.6,30.46,NW,308,0.0,1.0,87,0.00,,,0.00,90,Wunderground v.1.15,2013-01-14 14:39:00,
2013-01-14 08:41:00,11.2,8.1,30.47,WNW,291,3.0,3.0,87,0.00,,,0.00,93,Wunderground v.1.15,2013-01-14 14:41:00,
2013-01-14 08:43:00,11.5,8.1,30.47,WNW,285,3.0,4.0,86,0.00,,,0.00,98,Wunderground v.1.15,2013-01-14 14:43:00,
2013-01-14 08:44:00,11.7,8.3,30.47,WNW,283,4.0,4.0,86,0.00,,,0.00,104,Wunderground v.1.15,2013-01-14 14:44:00,
2013-01-14 08:45:00,11.8,8.2,30.47,WNW,283,3.0,4.0,85,0.00,,,0.00,104,Wunderground v.1.15,2013-01-14 14:45:00,
2013-01-14 08:46:00,11.8,8.2,30.47,WNW,283,2.0,4.0,85,0.00,,,0.00,107,Wunderground v.1.15,2013-01-14 14:46:00,
2013-01-14 08:50:00,12.1,8.2,30.47,West,281,2.0,3.0,84,0.00,,,0.00,118,Wunderground v.1.15,2013-01-14 14:50:00,
2013-01-14 08:51:00,12.2,8.3,30.47,West,280,4.0,4.0,84,0.00,,,0.00,120,Wunderground v.1.15,2013-01-14 14:51:00,
2013-01-14 08:52:00,12.3,8.4,30.47,West,279,4.0,4.0,84,0.00,,,0.00,125,Wunderground v.1.15,2013-01-14 14:52:00,
2013-01-14 08:57:00,12.7,8.5,30.47,West,279,3.0,5.0,83,0.00,,,0.00,141,Wunderground v.1.15,2013-01-14 14:57:00,
2013-01-14 08:58:00,12.8,8.6,30.47,West,279,1.0,5.0,83,0.00,,,0.00,142,Wunderground v.1.15,2013-01-14 14:58:00,
2013-01-14 08:59:00,12.9,9.0,30.47,West,279,1.0,5.0,84,0.00,,,0.00,146,Wunderground v.1.15,2013-01-14 14:59:00,
2013-01-14 09:00:00,13.1,9.2,30.47,West,279,4.0,4.0,84,0.00,,,0.00,151,Wunderground v.1.15,2013-01-14 15:00:00,
2013-01-14 09:02:00,13.3,9.4,30.47,West,275,3.0,4.0,84,0.00,,,0.00,156,Wunderground v.1.15,2013-01-14 15:02:00,
2013-01-14 09:03:00,13.4,9.2,30.48,West,260,5.0,5.0,83,0.00,,,0.00,158,Wunderground v.1.15,2013-01-14 15:03:00,
2013-01-14 09:05:00,13.5,9.3,30.48,WSW,243,4.0,5.0,83,0.00,,,0.00,163,Wunderground v.1.15,2013-01-14 15:05:00,
2013-01-14 09:06:00,13.6,9.4,30.48,SW,229,4.0,5.0,83,0.00,,,0.00,169,Wunderground v.1.15,2013-01-14 15:06:00,
2013-01-14 09:07:00,13.6,9.4,30.48,SW,229,3.0,5.0,83,0.00,,,0.00,171,Wunderground v.1.15,2013-01-14 15:07:00,
2013-01-14 09:08:00,13.7,9.5,30.48,SW,227,4.0,5.0,83,0.00,,,0.00,174,Wunderground v.1.15,2013-01-14 15:08:00,
2013-01-14 09:10:00,13.8,9.6,30.48,SW,219,2.0,3.0,83,0.00,,,0.00,179,Wunderground v.1.15,2013-01-14 15:10:00,
2013-01-14 09:13:00,13.9,9.7,30.48,SW,218,5.0,5.0,83,0.00,,,0.00,183,Wunderground v.1.15,2013-01-14 15:13:00,
2013-01-14 09:16:00,14.0,9.8,30.48,SSW,200,4.0,5.0,83,0.00,,,0.00,197,Wunderground v.1.15,2013-01-14 15:16:00,
2013-01-14 09:17:00,14.1,9.9,30.48,SSW,202,3.0,5.0,83,0.00,,,0.00,197,Wunderground v.1.15,2013-01-14 15:17:00,
2013-01-14 09:18:00,14.2,10.0,30.48,SSW,194,3.0,5.0,83,0.00,,,0.00,202,Wunderground v.1.15,2013-01-14 15:18:00,
2013-01-14 09:19:00,14.2,10.0,30.48,SSW,196,3.0,5.0,83,0.00,,,0.00,202,Wunderground v.1.15,2013-01-14 15:19:00,
2013-01-14 09:23:00,14.8,10.6,30.48,SSW,197,5.0,6.0,83,0.00,,,0.00,214,Wunderground v.1.15,2013-01-14 15:23:00,
2013-01-14 09:24:00,14.9,10.7,30.48,SSW,204,4.0,6.0,83,0.00,,,0.00,220,Wunderground v.1.15,2013-01-14 15:24:00,
2013-01-14 09:28:00,15.1,10.9,30.48,SSW,192,4.0,6.0,83,0.00,,,0.00,230,Wunderground v.1.15,2013-01-14 15:28:00,
2013-01-14 09:29:00,15.1,10.9,30.48,SSW,199,3.0,6.0,83,0.00,,,0.00,232,Wunderground v.1.15,2013-01-14 15:29:00,
2013-01-14 09:31:00,15.3,11.1,30.48,SSW,207,5.0,5.0,83,0.00,,,0.00,237,Wunderground v.1.15,2013-01-14 15:31:00,
2013-01-14 09:32:00,15.3,11.1,30.48,SSW,211,6.0,6.0,83,0.00,,,0.00,239,Wunderground v.1.15,2013-01-14 15:32:00,
2013-01-14 09:34:00,15.4,10.9,30.48,SSW,211,6.0,6.0,82,0.00,,,0.00,244,Wunderground v.1.15,2013-01-14 15:34:00,
2013-01-14 09:37:00,15.5,11.0,30.48,SSW,209,4.0,6.0,82,0.00,,,0.00,250,Wunderground v.1.15,2013-01-14 15:37:00,
2013-01-14 09:40:00,15.7,10.9,30.48,SSW,207,6.0,6.0,81,0.00,,,0.00,258,Wunderground v.1.15,2013-01-14 15:40:00,
2013-01-14 09:43:00,16.1,11.6,30.48,SW,226,4.0,6.0,82,0.00,,,0.00,265,Wunderground v.1.15,2013-01-14 15:43:00,
2013-01-14 09:45:00,16.6,12.1,30.48,SW,215,4.0,6.0,82,0.00,,,0.00,271,Wunderground v.1.15,2013-01-14 15:45:00,
2013-01-14 09:48:00,17.2,12.6,30.48,SSW,209,5.0,6.0,82,0.00,,,0.00,279,Wunderground v.1.15,2013-01-14 15:48:00,
2013-01-14 09:50:00,17.3,12.7,30.49,SW,216,6.0,6.0,82,0.00,,,0.00,283,Wunderground v.1.15,2013-01-14 15:50:00,
2013-01-14 09:51:00,17.5,12.7,30.49,SW,219,5.0,6.0,81,0.00,,,0.00,287,Wunderground v.1.15,2013-01-14 15:51:00,
2013-01-14 09:53:00,17.7,12.9,30.48,SW,221,5.0,7.0,81,0.00,,,0.00,292,Wunderground v.1.15,2013-01-14 15:53:00,
2013-01-14 09:55:00,18.0,13.2,30.49,SW,214,5.0,7.0,81,0.00,,,0.00,295,Wunderground v.1.15,2013-01-14 15:55:00,
2013-01-14 09:58:00,18.4,13.5,30.49,SSW,211,6.0,7.0,81,0.00,,,0.00,302,Wunderground v.1.15,2013-01-14 15:58:00,
2013-01-14 09:59:00,18.5,13.6,30.49,SSW,192,4.0,7.0,81,0.00,,,0.00,302,Wunderground v.1.15,2013-01-14 15:59:00,
2013-01-14 10:02:00,19.0,14.1,30.49,SSW,211,5.0,7.0,81,0.00,,,0.00,311,Wunderground v.1.15,2013-01-14 16:02:00,
2013-01-14 10:03:00,19.0,14.1,30.49,SSW,202,4.0,7.0,81,0.00,,,0.00,313,Wunderground v.1.15,2013-01-14 16:03:00,
2013-01-14 10:06:00,19.1,13.9,30.49,South,191,5.0,8.0,80,0.00,,,0.00,320,Wunderground v.1.15,2013-01-14 16:06:00,
2013-01-14 10:08:00,19.2,14.0,30.49,SW,218,7.0,8.0,80,0.00,,,0.00,325,Wunderground v.1.15,2013-01-14 16:08:00,
2013-01-14 10:09:00,19.3,14.1,30.49,SW,236,6.0,8.0,80,0.00,,,0.00,325,Wunderground v.1.15,2013-01-14 16:09:00,
2013-01-14 10:11:00,19.5,14.0,30.49,SW,215,8.0,8.0,79,0.00,,,0.00,330,Wunderground v.1.15,2013-01-14 16:11:00,
2013-01-14 10:14:00,19.8,14.3,30.49,SW,225,7.0,8.0,79,0.00,,,0.00,336,Wunderground v.1.15,2013-01-14 16:14:00,
2013-01-14 10:16:00,20.4,14.9,30.49,SW,219,7.0,9.0,79,0.00,,,0.00,341,Wunderground v.1.15,2013-01-14 16:16:00,
2013-01-14 10:17:00,20.4,14.9,30.49,SSW,196,7.0,9.0,79,0.00,,,0.00,341,Wunderground v.1.15,2013-01-14 16:17:00,
2013-01-14 10:21:00,20.7,14.9,30.49,SSW,205,6.0,7.0,78,0.00,,,0.00,350,Wunderground v.1.15,2013-01-14 16:21:00,
2013-01-14 10:25:00,20.9,15.1,30.49,SSW,213,4.0,9.0,78,0.00,,,0.00,359,Wunderground v.1.15,2013-01-14 16:25:00,
2013-01-14 10:26:00,21.0,15.2,30.49,SSW,195,7.0,9.0,78,0.00,,,0.00,360,Wunderground v.1.15,2013-01-14 16:26:00,
2013-01-14 10:27:00,20.9,15.1,30.49,SSW,205,6.0,9.0,78,0.00,,,0.00,362,Wunderground v.1.15,2013-01-14 16:27:00,
2013-01-14 10:28:00,21.0,15.2,30.49,SW,218,7.0,9.0,78,0.00,,,0.00,364,Wunderground v.1.15,2013-01-14 16:28:00,
2013-01-14 10:30:00,21.1,15.3,30.49,SSW,200,3.0,7.0,78,0.00,,,0.00,367,Wunderground v.1.15,2013-01-14 16:30:00,
2013-01-14 10:32:00,21.3,15.8,30.49,South,187,8.0,8.0,79,0.00,,,0.00,371,Wunderground v.1.15,2013-01-14 16:32:00,
2013-01-14 10:33:00,21.5,15.7,30.49,South,179,5.0,9.0,78,0.00,,,0.00,373,Wunderground v.1.15,2013-01-14 16:33:00,
2013-01-14 10:34:00,21.6,15.8,30.49,SSW,199,4.0,9.0,78,0.00,,,0.00,374,Wunderground v.1.15,2013-01-14 16:34:00,
2013-01-14 10:37:00,22.0,15.9,30.49,South,185,8.0,9.0,77,0.00,,,0.00,381,Wunderground v.1.15,2013-01-14 16:37:00,
2013-01-14 10:39:00,22.2,16.4,30.49,SSW,209,7.0,9.0,78,0.00,,,0.00,385,Wunderground v.1.15,2013-01-14 16:39:00,
2013-01-14 10:40:00,22.4,16.6,30.49,SSW,211,8.0,9.0,78,0.00,,,0.00,385,Wunderground v.1.15,2013-01-14 16:40:00,
2013-01-14 10:42:00,22.5,15.8,30.49,SW,222,7.0,8.0,75,0.00,,,0.00,390,Wunderground v.1.15,2013-01-14 16:42:00,
2013-01-14 10:45:00,22.8,15.8,30.49,SW,229,7.0,9.0,74,0.00,,,0.00,396,Wunderground v.1.15,2013-01-14 16:45:00,
2013-01-14 10:46:00,22.8,16.1,30.49,SSW,210,5.0,9.0,75,0.00,,,0.00,396,Wunderground v.1.15,2013-01-14 16:46:00,
2013-01-14 10:48:00,23.1,16.4,30.49,SSW,196,7.0,9.0,75,0.00,,,0.00,397,Wunderground v.1.15,2013-01-14 16:48:00,
2013-01-14 10:50:00,23.1,16.0,30.49,SSW,202,5.0,8.0,74,0.00,,,0.00,403,Wunderground v.1.15,2013-01-14 16:50:00,
2013-01-14 10:52:00,23.3,16.5,30.49,SW,222,7.0,8.0,75,0.00,,,0.00,404,Wunderground v.1.15,2013-01-14 16:52:00,
2013-01-14 10:53:00,23.6,16.5,30.49,SSW,206,9.0,9.0,74,0.00,,,0.00,408,Wunderground v.1.15,2013-01-14 16:53:00,
2013-01-14 10:57:00,24.2,16.1,30.49,SW,223,8.0,9.0,71,0.00,,,0.00,413,Wunderground v.1.15,2013-01-14 16:57:00,
2013-01-14 10:58:00,24.3,16.2,30.49,SW,227,8.0,9.0,71,0.00,,,0.00,415,Wunderground v.1.15,2013-01-14 16:58:00,
2013-01-14 11:00:00,24.5,16.8,30.49,SW,219,8.0,8.0,72,0.00,,,0.00,418,Wunderground v.1.15,2013-01-14 17:00:00,
2013-01-14 11:03:00,24.3,15.6,30.49,SSW,211,8.0,8.0,69,0.00,,,0.00,422,Wunderground v.1.15,2013-01-14 17:03:00,
2013-01-14 11:04:00,24.5,15.8,30.49,WSW,251,10.0,12.0,69,0.00,,,0.00,425,Wunderground v.1.15,2013-01-14 17:04:00,
2013-01-14 11:05:00,24.7,16.0,30.49,SW,223,8.0,12.0,69,0.00,,,0.00,427,Wunderground v.1.15,2013-01-14 17:05:00,
2013-01-14 11:08:00,25.3,16.9,30.49,SSW,202,7.0,12.0,70,0.00,,,0.00,431,Wunderground v.1.15,2013-01-14 17:08:00,
2013-01-14 11:11:00,25.4,16.6,30.49,SW,234,8.0,8.0,69,0.00,,,0.00,432,Wunderground v.1.15,2013-01-14 17:11:00,
2013-01-14 11:14:00,25.4,15.6,30.48,SW,221,8.0,9.0,66,0.00,,,0.00,436,Wunderground v.1.15,2013-01-14 17:14:00,
2013-01-14 11:16:00,25.6,16.8,30.48,SW,226,9.0,9.0,69,0.00,,,0.00,441,Wunderground v.1.15,2013-01-14 17:16:00,
2013-01-14 11:17:00,25.6,16.2,30.48,SW,225,8.0,11.0,67,0.00,,,0.00,441,Wunderground v.1.15,2013-01-14 17:17:00,
2013-01-14 11:18:00,25.7,16.3,30.48,SSW,207,11.0,11.0,67,0.00,,,0.00,443,Wunderground v.1.15,2013-01-14 17:18:00,
2013-01-14 11:19:00,25.7,15.9,30.48,SW,223,11.0,12.0,66,0.00,,,0.00,445,Wunderground v.1.15,2013-01-14 17:19:00,
2013-01-14 11:23:00,26.0,16.2,30.48,SW,228,11.0,11.0,66,0.00,,,0.00,446,Wunderground v.1.15,2013-01-14 17:23:00,
2013-01-14 11:24:00,26.0,15.8,30.48,SW,215,6.0,13.0,65,0.00,,,0.00,448,Wunderground v.1.15,2013-01-14 17:24:00,
2013-01-14 11:25:00,26.0,15.8,30.48,SW,216,9.0,13.0,65,0.00,,,0.00,448,Wunderground v.1.15,2013-01-14 17:25:00,
2013-01-14 11:26:00,26.0,15.8,30.48,SW,218,10.0,13.0,65,0.00,,,0.00,450,Wunderground v.1.15,2013-01-14 17:26:00,
2013-01-14 11:29:00,26.3,16.8,30.47,SSW,210,7.0,13.0,67,0.00,,,0.00,452,Wunderground v.1.15,2013-01-14 17:29:00,
2013-01-14 11:30:00,26.5,17.0,30.47,SW,219,10.0,10.0,67,0.00,,,0.00,452,Wunderground v.1.15,2013-01-14 17:30:00,
2013-01-14 11:31:00,26.5,17.0,30.47,SW,219,9.0,11.0,67,0.00,,,0.00,454,Wunderground v.1.15,2013-01-14 17:31:00,
2013-01-14 11:34:00,26.2,16.0,30.47,SW,219,7.0,12.0,65,0.00,,,0.00,457,Wunderground v.1.15,2013-01-14 17:34:00,
2013-01-14 11:35:00,26.3,16.1,30.47,SW,220,7.0,12.0,65,0.00,,,0.00,461,Wunderground v.1.15,2013-01-14 17:35:00,
2013-01-14 11:36:00,26.5,16.7,30.47,SW,214,5.0,12.0,66,0.00,,,0.00,461,Wunderground v.1.15,2013-01-14 17:36:00,
2013-01-14 11:40:00,26.4,16.2,30.47,SW,234,9.0,9.0,65,0.00,,,0.00,462,Wunderground v.1.15,2013-01-14 17:40:00,
2013-01-14 11:41:00,26.5,16.3,30.47,SW,218,9.0,9.0,65,0.00,,,0.00,464,Wunderground v.1.15,2013-01-14 17:41:00,
2013-01-14 11:44:00,26.6,16.1,30.46,SW,217,5.0,9.0,64,0.00,,,0.00,466,Wunderground v.1.15,2013-01-14 17:44:00,
2013-01-14 11:46:00,26.5,16.0,30.46,SW,217,9.0,9.0,64,0.00,,,0.00,462,Wunderground v.1.15,2013-01-14 17:46:00,
2013-01-14 11:47:00,26.5,16.0,30.46,WSW,246,5.0,9.0,64,0.00,,,0.00,468,Wunderground v.1.15,2013-01-14 17:47:00,
2013-01-14 11:48:00,26.6,16.4,30.46,SW,230,7.0,9.0,65,0.00,,,0.00,466,Wunderground v.1.15,2013-01-14 17:48:00,
2013-01-14 11:50:00,26.7,16.1,30.46,WSW,242,9.0,9.0,64,0.00,,,0.00,471,Wunderground v.1.15,2013-01-14 17:50:00,
2013-01-14 11:51:00,26.7,15.4,30.46,SW,236,6.0,9.0,62,0.00,,,0.00,471,Wunderground v.1.15,2013-01-14 17:51:00,
2013-01-14 11:52:00,26.6,15.7,30.46,WSW,244,8.0,9.0,63,0.00,,,0.00,473,Wunderground v.1.15,2013-01-14 17:52:00,
2013-01-14 11:53:00,26.9,16.7,30.46,WSW,251,8.0,9.0,65,0.00,,,0.00,475,Wunderground v.1.15,2013-01-14 17:53:00,
2013-01-14 11:55:00,27.2,16.6,30.46,West,261,9.0,13.0,64,0.00,,,0.00,475,Wunderground v.1.15,2013-01-14 17:55:00,
2013-01-14 11:56:00,27.1,15.8,30.46,West,265,8.0,13.0,62,0.00,,,0.00,473,Wunderground v.1.15,2013-01-14 17:56:00,
2013-01-14 11:58:00,27.1,16.5,30.45,WSW,247,8.0,13.0,64,0.00,,,0.00,475,Wunderground v.1.15,2013-01-14 17:58:00,
2013-01-14 12:00:00,27.0,16.1,30.45,SW,230,5.0,8.0,63,0.00,,,0.00,476,Wunderground v.1.15,2013-01-14 18:00:00,
2013-01-14 12:02:00,27.1,15.8,30.45,WSW,240,11.0,11.0,62,0.00,,,0.00,478,Wunderground v.1.15,2013-01-14 18:02:00,
2013-01-14 12:05:00,27.2,15.9,30.45,WSW,237,9.0,12.0,62,0.00,,,0.00,478,Wunderground v.1.15,2013-01-14 18:05:00,
2013-01-14 12:06:00,27.3,16.0,30.45,SW,225,9.0,12.0,62,0.00,,,0.00,478,Wunderground v.1.15,2013-01-14 18:06:00,
2013-01-14 12:08:00,27.8,16.8,30.45,WSW,258,8.0,12.0,63,0.00,,,0.00,480,Wunderground v.1.15,2013-01-14 18:08:00,
2013-01-14 12:10:00,27.8,17.2,30.45,WSW,241,9.0,9.0,64,0.00,,,0.00,480,Wunderground v.1.15,2013-01-14 18:10:00,
2013-01-14 12:12:00,27.9,16.6,30.45,SW,231,8.0,13.0,62,0.00,,,0.00,482,Wunderground v.1.15,2013-01-14 18:12:00,
2013-01-14 12:13:00,27.7,16.0,30.45,SW,223,7.0,13.0,61,0.00,,,0.00,482,Wunderground v.1.15,2013-01-14 18:13:00,
2013-01-14 12:14:00,27.7,16.4,30.44,WSW,249,7.0,13.0,62,0.00,,,0.00,483,Wunderground v.1.15,2013-01-14 18:14:00,
2013-01-14 12:16:00,27.7,16.4,30.44,SW,232,9.0,13.0,62,0.00,,,0.00,483,Wunderground v.1.15,2013-01-14 18:16:00,
2013-01-14 12:18:00,27.6,15.9,30.44,SW,236,4.0,13.0,61,0.00,,,0.00,483,Wunderground v.1.15,2013-01-14 18:18:00,
2013-01-14 12:20:00,27.8,16.5,30.44,WSW,237,8.0,11.0,62,0.00,,,0.00,482,Wunderground v.1.15,2013-01-14 18:20:00,
2013-01-14 12:23:00,27.6,14.7,30.44,WSW,246,7.0,12.0,58,0.00,,,0.00,483,Wunderground v.1.15,2013-01-14 18:23:00,
2013-01-14 12:25:00,27.4,14.9,30.44,WSW,250,10.0,12.0,59,0.00,,,0.00,483,Wunderground v.1.15,2013-01-14 18:25:00,
2013-01-14 12:26:00,27.6,15.9,30.44,WSW,237,9.0,12.0,61,0.00,,,0.00,483,Wunderground v.1.15,2013-01-14 18:26:00,
2013-01-14 12:29:00,27.9,16.2,30.44,WSW,252,11.0,12.0,61,0.00,,,0.00,483,Wunderground v.1.15,2013-01-14 18:29:00,
2013-01-14 12:30:00,28.0,16.6,30.44,WSW,257,10.0,10.0,62,0.00,,,0.00,483,Wunderground v.1.15,2013-01-14 18:30:00,
2013-01-14 12:32:00,27.9,15.4,30.43,WSW,252,7.0,10.0,59,0.00,,,0.00,483,Wunderground v.1.15,2013-01-14 18:32:00,
2013-01-14 12:34:00,27.9,16.6,30.43,WSW,258,11.0,12.0,62,0.00,,,0.00,483,Wunderground v.1.15,2013-01-14 18:34:00,
2013-01-14 12:35:00,27.9,16.2,30.43,SW,232,8.0,12.0,61,0.00,,,0.00,483,Wunderground v.1.15,2013-01-14 18:35:00,
2013-01-14 12:37:00,27.9,15.8,30.43,WSW,252,8.0,12.0,60,0.00,,,0.00,483,Wunderground v.1.15,2013-01-14 18:37:00,
2013-01-14 12:40:00,28.1,16.7,30.43,WSW,257,7.0,10.0,62,0.00,,,0.00,482,Wunderground v.1.15,2013-01-14 18:40:00,
2013-01-14 12:41:00,28.0,16.6,30.43,West,274,8.0,11.0,62,0.00,,,0.00,482,Wunderground v.1.15,2013-01-14 18:41:00,
2013-01-14 12:42:00,28.0,16.3,30.43,West,259,7.0,11.0,61,0.00,,,0.00,482,Wunderground v.1.15,2013-01-14 18:42:00,
2013-01-14 12:43:00,28.1,16.7,30.42,WSW,252,7.0,11.0,62,0.00,,,0.00,482,Wunderground v.1.15,2013-01-14 18:43:00,
2013-01-14 12:46:00,28.1,16.4,30.42,West,260,9.0,11.0,61,0.00,,,0.00,483,Wunderground v.1.15,2013-01-14 18:46:00,
2013-01-14 12:47:00,28.1,16.7,30.42,WSW,250,7.0,11.0,62,0.00,,,0.00,483,Wunderground v.1.15,2013-01-14 18:47:00,
2013-01-14 12:48:00,28.1,16.7,30.42,WSW,251,9.0,11.0,62,0.00,,,0.00,483,Wunderground v.1.15,2013-01-14 18:48:00,
2013-01-14 12:51:00,27.9,15.4,30.42,West,259,5.0,9.0,59,0.00,,,0.00,480,Wunderground v.1.15,2013-01-14 18:51:00,
2013-01-14 12:53:00,27.8,15.7,30.42,West,270,6.0,9.0,60,0.00,,,0.00,480,Wunderground v.1.15,2013-01-14 18:53:00,
2013-01-14 12:54:00,27.7,15.2,30.42,WNW,286,5.0,9.0,59,0.00,,,0.00,480,Wunderground v.1.15,2013-01-14 18:54:00,
2013-01-14 12:56:00,27.4,14.5,30.42,WNW,286,5.0,9.0,58,0.00,,,0.00,478,Wunderground v.1.15,2013-01-14 18:56:00,
2013-01-14 12:58:00,27.4,15.3,30.42,West,263,7.0,9.0,60,0.00,,,0.00,478,Wunderground v.1.15,2013-01-14 18:58:00,
2013-01-14 12:59:00,27.6,16.3,30.42,West,275,8.0,9.0,62,0.00,,,0.00,478,Wunderground v.1.15,2013-01-14 18:59:00,
2013-01-14 13:00:00,27.7,16.4,30.41,West,277,7.0,7.0,62,0.00,,,0.00,478,Wunderground v.1.15,2013-01-14 19:00:00,
2013-01-14 13:02:00,27.7,15.2,30.42,West,275,7.0,8.0,59,0.00,,,0.00,478,Wunderground v.1.15,2013-01-14 19:02:00,
2013-01-14 13:04:00,27.9,16.6,30.41,West,264,7.0,9.0,62,0.00,,,0.00,476,Wunderground v.1.15,2013-01-14 19:04:00,
2013-01-14 13:06:00,27.9,15.8,30.41,SW,221,9.0,9.0,60,0.00,,,0.00,473,Wunderground v.1.15,2013-01-14 19:06:00,
2013-01-14 13:07:00,28.2,16.8,30.41,WSW,256,9.0,13.0,62,0.00,,,0.00,473,Wunderground v.1.15,2013-01-14 19:07:00,
2013-01-14 13:09:00,28.1,15.6,30.41,West,266,6.0,13.0,59,0.00,,,0.00,471,Wunderground v.1.15,2013-01-14 19:09:00,
2013-01-14 13:11:00,28.0,15.9,30.41,SW,229,7.0,8.0,60,0.00,,,0.00,471,Wunderground v.1.15,2013-01-14 19:11:00,
2013-01-14 13:12:00,28.1,16.4,30.41,SW,232,7.0,8.0,61,0.00,,,0.00,469,Wunderground v.1.15,2013-01-14 19:12:00,
2013-01-14 13:16:00,28.2,16.1,30.41,West,263,11.0,11.0,60,0.00,,,0.00,468,Wunderground v.1.15,2013-01-14 19:16:00,
2013-01-14 13:20:00,28.3,15.4,30.41,WSW,243,11.0,11.0,58,0.00,,,0.00,464,Wunderground v.1.15,2013-01-14 19:20:00,
2013-01-14 13:21:00,28.3,15.4,30.41,West,272,7.0,11.0,58,0.00,,,0.00,464,Wunderground v.1.15,2013-01-14 19:21:00,
2013-01-14 13:22:00,28.2,15.3,30.41,WSW,242,8.0,11.0,58,0.00,,,0.00,464,Wunderground v.1.15,2013-01-14 19:22:00,
2013-01-14 13:25:00,28.3,16.2,30.40,WSW,246,9.0,11.0,60,0.00,,,0.00,461,Wunderground v.1.15,2013-01-14 19:25:00,
2013-01-14 13:26:00,28.3,16.2,30.40,WSW,238,8.0,11.0,60,0.00,,,0.00,459,Wunderground v.1.15,2013-01-14 19:26:00,
2013-01-14 13:28:00,28.3,15.4,30.40,WSW,238,5.0,11.0,58,0.00,,,0.00,457,Wunderground v.1.15,2013-01-14 19:28:00,
2013-01-14 13:30:00,28.2,14.9,30.40,West,259,5.0,11.0,57,0.00,,,0.00,455,Wunderground v.1.15,2013-01-14 19:30:00,
2013-01-14 13:31:00,28.4,16.3,30.40,WSW,253,7.0,8.0,60,0.00,,,0.00,455,Wunderground v.1.15,2013-01-14 19:31:00,
2013-01-14 13:33:00,28.4,15.9,30.40,WSW,254,5.0,8.0,59,0.00,,,0.00,452,Wunderground v.1.15,2013-01-14 19:33:00,
2013-01-14 13:35:00,28.4,16.7,30.40,West,272,11.0,11.0,61,0.00,,,0.00,452,Wunderground v.1.15,2013-01-14 19:35:00,
2013-01-14 13:38:00,28.4,16.3,30.40,West,270,6.0,11.0,60,0.00,,,0.00,448,Wunderground v.1.15,2013-01-14 19:38:00,
2013-01-14 13:39:00,28.5,16.7,30.40,West,280,7.0,11.0,61,0.00,,,0.00,446,Wunderground v.1.15,2013-01-14 19:39:00,
2013-01-14 13:40:00,28.5,16.4,30.40,West,261,3.0,7.0,60,0.00,,,0.00,445,Wunderground v.1.15,2013-01-14 19:40:00,
2013-01-14 13:43:00,28.7,16.2,30.40,SW,228,6.0,7.0,59,0.00,,,0.00,443,Wunderground v.1.15,2013-01-14 19:43:00,
2013-01-14 13:44:00,28.7,16.6,30.40,SW,214,2.0,7.0,60,0.00,,,0.00,443,Wunderground v.1.15,2013-01-14 19:44:00,
2013-01-14 13:45:00,28.8,16.6,30.40,SSW,211,2.0,7.0,60,0.00,,,0.00,441,Wunderground v.1.15,2013-01-14 19:45:00,
2013-01-14 13:46:00,28.6,15.3,30.40,South,180,3.0,7.0,57,0.00,,,0.00,438,Wunderground v.1.15,2013-01-14 19:46:00,
2013-01-14 13:48:00,28.3,14.6,30.40,SW,236,6.0,7.0,56,0.00,,,0.00,436,Wunderground v.1.15,2013-01-14 19:48:00,
2013-01-14 13:50:00,28.3,15.0,30.40,WSW,246,6.0,6.0,57,0.00,,,0.00,434,Wunderground v.1.15,2013-01-14 19:50:00,
2013-01-14 13:51:00,28.4,15.9,30.40,WSW,243,4.0,6.0,59,0.00,,,0.00,432,Wunderground v.1.15,2013-01-14 19:51:00,
2013-01-14 13:53:00,28.5,16.0,30.40,WSW,253,6.0,8.0,59,0.00,,,0.00,429,Wunderground v.1.15,2013-01-14 19:53:00,
2013-01-14 13:55:00,28.3,14.2,30.40,West,267,3.0,8.0,55,0.00,,,0.00,427,Wunderground v.1.15,2013-01-14 19:55:00,
2013-01-14 13:57:00,28.4,15.1,30.40,West,281,5.0,8.0,57,0.00,,,0.00,427,Wunderground v.1.15,2013-01-14 19:57:00,
2013-01-14 13:58:00,28.5,16.0,30.40,SW,219,2.0,8.0,59,0.00,,,0.00,424,Wunderground v.1.15,2013-01-14 19:58:00,
2013-01-14 14:01:00,28.8,15.9,30.40,WSW,240,4.0,9.0,58,0.00,,,0.00,418,Wunderground v.1.15,2013-01-14 20:01:00,
2013-01-14 14:02:00,28.9,16.4,30.40,WSW,255,8.0,9.0,59,0.00,,,0.00,418,Wunderground v.1.15,2013-01-14 20:02:00,
2013-01-14 14:05:00,28.9,16.4,30.40,WSW,247,10.0,10.0,59,0.00,,,0.00,415,Wunderground v.1.15,2013-01-14 20:05:00,
2013-01-14 14:06:00,28.8,15.9,30.40,WSW,254,7.0,10.0,58,0.00,,,0.00,413,Wunderground v.1.15,2013-01-14 20:06:00,
2013-01-14 14:08:00,28.7,15.4,30.40,West,261,6.0,10.0,57,0.00,,,0.00,410,Wunderground v.1.15,2013-01-14 20:08:00,
2013-01-14 14:09:00,28.6,15.3,30.40,West,262,5.0,10.0,57,0.00,,,0.00,408,Wunderground v.1.15,2013-01-14 20:09:00,
2013-01-14 14:10:00,28.7,16.6,30.40,WSW,238,5.0,7.0,60,0.00,,,0.00,406,Wunderground v.1.15,2013-01-14 20:10:00,
2013-01-14 14:11:00,28.8,16.3,30.40,West,271,4.0,7.0,59,0.00,,,0.00,404,Wunderground v.1.15,2013-01-14 20:11:00,
2013-01-14 14:13:00,28.9,16.4,30.40,West,265,7.0,7.0,59,0.00,,,0.00,403,Wunderground v.1.15,2013-01-14 20:13:00,
2013-01-14 14:15:00,28.8,16.6,30.40,WSW,254,7.0,10.0,60,0.00,,,0.00,399,Wunderground v.1.15,2013-01-14 20:15:00,
2013-01-14 14:16:00,28.9,17.1,30.40,WSW,240,7.0,11.0,61,0.00,,,0.00,396,Wunderground v.1.15,2013-01-14 20:16:00,
2013-01-14 14:17:00,28.8,15.5,30.40,WSW,243,7.0,11.0,57,0.00,,,0.00,396,Wunderground v.1.15,2013-01-14 20:17:00,
2013-01-14 14:19:00,28.7,15.0,30.40,SSW,213,5.0,11.0,56,0.00,,,0.00,392,Wunderground v.1.15,2013-01-14 20:19:00,
2013-01-14 14:20:00,28.7,15.4,30.40,SW,221,4.0,6.0,57,0.00,,,0.00,390,Wunderground v.1.15,2013-01-14 20:20:00,
2013-01-14 14:22:00,28.9,16.0,30.40,SSW,211,6.0,8.0,58,0.00,,,0.00,387,Wunderground v.1.15,2013-01-14 20:22:00,
2013-01-14 14:25:00,28.8,15.5,30.40,SW,230,5.0,10.0,57,0.00,,,0.00,380,Wunderground v.1.15,2013-01-14 20:25:00,
2013-01-14 14:26:00,28.8,15.5,30.40,SW,221,5.0,10.0,57,0.00,,,0.00,378,Wunderground v.1.15,2013-01-14 20:26:00,
2013-01-14 14:27:00,28.8,15.5,30.40,WSW,237,5.0,10.0,57,0.00,,,0.00,378,Wunderground v.1.15,2013-01-14 20:27:00,
2013-01-14 14:31:00,29.1,16.5,30.40,West,275,6.0,7.0,59,0.00,,,0.00,369,Wunderground v.1.15,2013-01-14 20:31:00,
2013-01-14 14:32:00,29.0,16.4,30.40,WSW,243,10.0,10.0,59,0.00,,,0.00,369,Wunderground v.1.15,2013-01-14 20:32:00,
2013-01-14 14:36:00,28.7,14.6,30.40,West,271,2.0,10.0,55,0.00,,,0.00,360,Wunderground v.1.15,2013-01-14 20:36:00,
2013-01-14 14:37:00,28.7,14.6,30.40,West,272,4.0,10.0,55,0.00,,,0.00,357,Wunderground v.1.15,2013-01-14 20:37:00,
2013-01-14 14:42:00,28.7,16.2,30.40,West,269,8.0,8.0,59,0.00,,,0.00,352,Wunderground v.1.15,2013-01-14 20:42:00,
2013-01-14 14:43:00,28.7,15.8,30.40,West,280,5.0,8.0,58,0.00,,,0.00,348,Wunderground v.1.15,2013-01-14 20:43:00,
2013-01-14 14:44:00,28.7,16.2,30.40,WSW,246,8.0,8.0,59,0.00,,,0.00,345,Wunderground v.1.15,2013-01-14 20:44:00,
2013-01-14 14:47:00,28.8,15.5,30.40,WSW,242,6.0,8.0,57,0.00,,,0.00,338,Wunderground v.1.15,2013-01-14 20:47:00,
2013-01-14 14:48:00,28.7,15.4,30.40,WSW,242,4.0,8.0,57,0.00,,,0.00,336,Wunderground v.1.15,2013-01-14 20:48:00,
2013-01-14 14:50:00,28.7,15.4,30.40,West,269,5.0,8.0,57,0.00,,,0.00,334,Wunderground v.1.15,2013-01-14 20:50:00,
2013-01-14 14:53:00,28.8,15.5,30.40,WSW,252,4.0,7.0,57,0.00,,,0.00,325,Wunderground v.1.15,2013-01-14 20:53:00,
2013-01-14 14:54:00,28.8,15.5,30.40,SW,219,6.0,7.0,57,0.00,,,0.00,323,Wunderground v.1.15,2013-01-14 20:54:00,
2013-01-14 14:55:00,28.8,15.1,30.40,WSW,244,5.0,7.0,56,0.00,,,0.00,323,Wunderground v.1.15,2013-01-14 20:55:00,
2013-01-14 14:58:00,28.8,15.1,30.40,SW,236,4.0,7.0,56,0.00,,,0.00,313,Wunderground v.1.15,2013-01-14 20:58:00,
2013-01-14 14:59:00,28.8,14.6,30.40,SW,236,2.0,7.0,55,0.00,,,0.00,311,Wunderground v.1.15,2013-01-14 20:59:00,
2013-01-14 15:00:00,28.8,15.1,30.40,WSW,238,4.0,5.0,56,0.00,,,0.00,309,Wunderground v.1.15,2013-01-14 21:00:00,
2013-01-14 15:01:00,28.8,15.1,30.40,WSW,247,4.0,5.0,56,0.00,,,0.00,309,Wunderground v.1.15,2013-01-14 21:01:00,
2013-01-14 15:04:00,28.6,14.5,30.40,WSW,254,3.0,5.0,55,0.00,,,0.00,295,Wunderground v.1.15,2013-01-14 21:04:00,
2013-01-14 15:05:00,28.7,15.0,30.40,West,264,5.0,6.0,56,0.00,,,0.00,304,Wunderground v.1.15,2013-01-14 21:05:00,
2013-01-14 15:06:00,28.6,14.5,30.40,West,264,2.0,6.0,55,0.00,,,0.00,309,Wunderground v.1.15,2013-01-14 21:06:00,
2013-01-14 15:09:00,28.9,16.0,30.40,WSW,239,4.0,6.0,58,0.00,,,0.00,299,Wunderground v.1.15,2013-01-14 21:09:00,
2013-01-14 15:11:00,29.1,16.5,30.41,West,260,6.0,8.0,59,0.00,,,0.00,292,Wunderground v.1.15,2013-01-14 21:11:00,
2013-01-14 15:13:00,29.1,16.5,30.40,West,263,5.0,9.0,59,0.00,,,0.00,287,Wunderground v.1.15,2013-01-14 21:13:00,
2013-01-14 15:15:00,28.9,15.6,30.40,West,266,6.0,9.0,57,0.00,,,0.00,281,Wunderground v.1.15,2013-01-14 21:15:00,
2013-01-14 15:16:00,28.9,16.7,30.40,WSW,254,6.0,9.0,60,0.00,,,0.00,251,Wunderground v.1.15,2013-01-14 21:16:00,
2013-01-14 15:17:00,28.9,16.7,30.40,WSW,248,5.0,9.0,60,0.00,,,0.00,251,Wunderground v.1.15,2013-01-14 21:17:00,
2013-01-14 15:18:00,28.9,16.4,30.41,WSW,246,5.0,9.0,59,0.00,,,0.00,243,Wunderground v.1.15,2013-01-14 21:18:00,
2013-01-14 15:22:00,28.8,15.5,30.41,WSW,244,4.0,6.0,57,0.00,,,0.00,262,Wunderground v.1.15,2013-01-14 21:22:00,
2013-01-14 15:23:00,28.9,16.0,30.41,West,273,4.0,6.0,58,0.00,,,0.00,241,Wunderground v.1.15,2013-01-14 21:23:00,
2013-01-14 15:28:00,28.6,15.3,30.40,WSW,250,2.0,6.0,57,0.00,,,0.00,186,Wunderground v.1.15,2013-01-14 21:28:00,
2013-01-14 15:29:00,28.7,16.2,30.40,SW,225,4.0,6.0,59,0.00,,,0.00,193,Wunderground v.1.15,2013-01-14 21:29:00,
2013-01-14 15:34:00,28.5,15.6,30.40,West,261,7.0,7.0,58,0.00,,,0.00,221,Wunderground v.1.15,2013-01-14 21:34:00,
2013-01-14 15:36:00,28.5,16.0,30.40,WSW,254,4.0,7.0,59,0.00,,,0.00,221,Wunderground v.1.15,2013-01-14 21:36:00,
2013-01-14 15:39:00,28.4,14.3,30.40,West,259,2.0,7.0,55,0.00,,,0.00,211,Wunderground v.1.15,2013-01-14 21:39:00,
2013-01-14 15:40:00,28.4,13.9,30.40,West,259,0.0,7.0,54,0.00,,,0.00,176,Wunderground v.1.15,2013-01-14 21:40:00,
2013-01-14 15:41:00,28.3,15.0,30.40,WSW,257,2.0,5.0,57,0.00,,,0.00,160,Wunderground v.1.15,2013-01-14 21:41:00,
2013-01-14 15:44:00,28.2,13.7,30.40,WSW,257,0.0,5.0,54,0.00,,,0.00,155,Wunderground v.1.15,2013-01-14 21:44:00,
2013-01-14 15:45:00,28.2,14.5,30.40,WSW,257,0.0,5.0,56,0.00,,,0.00,155,Wunderground v.1.15,2013-01-14 21:45:00,
2013-01-14 15:46:00,28.3,14.6,30.40,WSW,248,3.0,5.0,56,0.00,,,0.00,185,Wunderground v.1.15,2013-01-14 21:46:00,
2013-01-14 15:47:00,28.3,14.6,30.40,WSW,247,4.0,5.0,56,0.00,,,0.00,185,Wunderground v.1.15,2013-01-14 21:47:00,
2013-01-14 15:50:00,28.4,14.7,30.41,WSW,244,2.0,2.0,56,0.00,,,0.00,183,Wunderground v.1.15,2013-01-14 21:50:00,
2013-01-14 15:52:00,28.5,15.2,30.41,WSW,249,5.0,5.0,57,0.00,,,0.00,178,Wunderground v.1.15,2013-01-14 21:52:00,
2013-01-14 15:55:00,28.7,16.2,30.41,WSW,238,4.0,6.0,59,0.00,,,0.00,169,Wunderground v.1.15,2013-01-14 21:55:00,
2013-01-14 15:56:00,28.8,17.0,30.41,SW,219,7.0,7.0,61,0.00,,,0.00,167,Wunderground v.1.15,2013-01-14 21:56:00,
2013-01-14 15:57:00,28.8,16.6,30.41,SW,219,4.0,7.0,60,0.00,,,0.00,160,Wunderground v.1.15,2013-01-14 21:57:00,
2013-01-14 16:00:00,28.7,16.6,30.40,WSW,254,8.0,8.0,60,0.00,,,0.00,149,Wunderground v.1.15,2013-01-14 22:00:00,
2013-01-14 16:01:00,28.7,16.9,30.40,West,266,5.0,8.0,61,0.00,,,0.00,141,Wunderground v.1.15,2013-01-14 22:01:00,
2013-01-14 16:03:00,28.6,16.1,30.41,West,269,5.0,8.0,59,0.00,,,0.00,132,Wunderground v.1.15,2013-01-14 22:03:00,
2013-01-14 16:05:00,28.5,16.0,30.40,WNW,282,5.0,8.0,59,0.00,,,0.00,125,Wunderground v.1.15,2013-01-14 22:05:00,
2013-01-14 16:07:00,28.5,17.1,30.41,West,265,4.0,8.0,62,0.00,,,0.00,113,Wunderground v.1.15,2013-01-14 22:07:00,
2013-01-14 16:09:00,28.4,15.9,30.40,West,263,2.0,8.0,59,0.00,,,0.00,104,Wunderground v.1.15,2013-01-14 22:09:00,
2013-01-14 16:10:00,28.4,15.9,30.40,West,263,2.0,5.0,59,0.00,,,0.00,102,Wunderground v.1.15,2013-01-14 22:10:00,
2013-01-14 16:11:00,28.3,15.8,30.40,West,263,2.0,5.0,59,0.00,,,0.00,102,Wunderground v.1.15,2013-01-14 22:11:00,
2013-01-14 16:13:00,28.3,15.8,30.40,WSW,258,0.0,5.0,59,0.00,,,0.00,84,Wunderground v.1.15,2013-01-14 22:13:00,
2013-01-14 16:14:00,28.2,15.3,30.40,WSW,258,0.0,5.0,58,0.00,,,0.00,86,Wunderground v.1.15,2013-01-14 22:14:00,
2013-01-14 16:16:00,28.1,15.6,30.40,WSW,258,2.0,5.0,59,0.00,,,0.00,81,Wunderground v.1.15,2013-01-14 22:16:00,
2013-01-14 16:18:00,28.1,14.8,30.40,WSW,240,3.0,5.0,57,0.00,,,0.00,83,Wunderground v.1.15,2013-01-14 22:18:00,
2013-01-14 16:20:00,28.1,14.8,30.40,WSW,249,2.0,5.0,57,0.00,,,0.00,83,Wunderground v.1.15,2013-01-14 22:20:00,
2013-01-14 16:22:00,28.1,15.2,30.40,WSW,248,1.0,2.0,58,0.00,,,0.00,81,Wunderground v.1.15,2013-01-14 22:22:00,
2013-01-14 16:23:00,28.1,15.2,30.40,WSW,248,2.0,2.0,58,0.00,,,0.00,79,Wunderground v.1.15,2013-01-14 22:23:00,
2013-01-14 16:26:00,28.1,14.8,30.41,WSW,248,2.0,3.0,57,0.00,,,0.00,76,Wunderground v.1.15,2013-01-14 22:26:00,
2013-01-14 16:27:00,28.1,15.2,30.40,WSW,248,2.0,3.0,58,0.00,,,0.00,76,Wunderground v.1.15,2013-01-14 22:27:00,
2013-01-14 16:28:00,28.1,16.0,30.40,WSW,248,0.0,3.0,60,0.00,,,0.00,76,Wunderground v.1.15,2013-01-14 22:28:00,
2013-01-14 16:30:00,28.1,16.4,30.40,WSW,248,2.0,2.0,61,0.00,,,0.00,70,Wunderground v.1.15,2013-01-14 22:30:00,
2013-01-14 16:32:00,28.1,16.7,30.40,WSW,248,2.0,3.0,62,0.00,,,0.00,63,Wunderground v.1.15,2013-01-14 22:32:00,
2013-01-14 16:34:00,28.1,16.0,30.40,WSW,248,3.0,3.0,60,0.00,,,0.00,53,Wunderground v.1.15,2013-01-14 22:34:00,
2013-01-14 16:35:00,28.0,16.6,30.40,WSW,251,4.0,4.0,62,0.00,,,0.00,49,Wunderground v.1.15,2013-01-14 22:35:00,
2013-01-14 16:39:00,27.8,16.1,30.40,WSW,250,3.0,5.0,61,0.00,,,0.00,35,Wunderground v.1.15,2013-01-14 22:39:00,
2013-01-14 16:40:00,27.8,16.5,30.40,WSW,250,2.0,3.0,62,0.00,,,0.00,33,Wunderground v.1.15,2013-01-14 22:40:00,
2013-01-14 16:41:00,27.7,16.4,30.40,WSW,250,2.0,3.0,62,0.00,,,0.00,32,Wunderground v.1.15,2013-01-14 22:41:00,
2013-01-14 16:44:00,27.6,16.3,30.40,WSW,250,2.0,3.0,62,0.00,,,0.00,26,Wunderground v.1.15,2013-01-14 22:44:00,
2013-01-14 16:46:00,27.5,16.9,30.40,WSW,250,2.0,3.0,64,0.00,,,0.00,21,Wunderground v.1.15,2013-01-14 22:46:00,
2013-01-14 16:47:00,27.5,16.9,30.40,WSW,250,1.0,3.0,64,0.00,,,0.00,21,Wunderground v.1.15,2013-01-14 22:47:00,
2013-01-14 16:48:00,27.4,16.8,30.40,WSW,250,1.0,3.0,64,0.00,,,0.00,19,Wunderground v.1.15,2013-01-14 22:48:00,
2013-01-14 16:50:00,27.4,16.8,30.40,WSW,250,2.0,3.0,64,0.00,,,0.00,18,Wunderground v.1.15,2013-01-14 22:50:00,
2013-01-14 16:52:00,27.3,16.7,30.40,WSW,250,0.0,3.0,64,0.00,,,0.00,16,Wunderground v.1.15,2013-01-14 22:52:00,
2013-01-14 16:53:00,27.3,16.7,30.40,WSW,250,2.0,3.0,64,0.00,,,0.00,16,Wunderground v.1.15,2013-01-14 22:53:00,
2013-01-14 16:56:00,27.1,17.9,30.40,WSW,250,2.0,3.0,68,0.00,,,0.00,14,Wunderground v.1.15,2013-01-14 22:56:00,
2013-01-14 16:57:00,27.0,17.5,30.40,WSW,250,1.0,3.0,67,0.00,,,0.00,12,Wunderground v.1.15,2013-01-14 22:57:00,
2013-01-14 16:58:00,27.0,17.5,30.40,WSW,250,2.0,3.0,67,0.00,,,0.00,12,Wunderground v.1.15,2013-01-14 22:58:00,
2013-01-14 17:02:00,26.6,18.1,30.40,WSW,250,0.0,1.0,70,0.00,,,0.00,11,Wunderground v.1.15,2013-01-14 23:02:00,
2013-01-14 17:03:00,26.5,18.4,30.40,WSW,250,0.0,1.0,71,0.00,,,0.00,11,Wunderground v.1.15,2013-01-14 23:03:00,
2013-01-14 17:08:00,25.9,18.4,30.40,WSW,250,0.0,1.0,73,0.00,,,0.00,7,Wunderground v.1.15,2013-01-14 23:08:00,
2013-01-14 17:09:00,25.9,18.4,30.40,WSW,250,0.0,1.0,73,0.00,,,0.00,7,Wunderground v.1.15,2013-01-14 23:09:00,
2013-01-14 17:13:00,25.5,18.7,30.40,WSW,250,0.0,0.0,75,0.00,,,0.00,5,Wunderground v.1.15,2013-01-14 23:13:00,
2013-01-14 17:14:00,25.4,18.6,30.40,WSW,250,0.0,0.0,75,0.00,,,0.00,5,Wunderground v.1.15,2013-01-14 23:14:00,
2013-01-14 17:15:00,25.2,18.4,30.40,WSW,250,0.0,0.0,75,0.00,,,0.00,0,Wunderground v.1.15,2013-01-14 23:15:00,
2013-01-14 17:19:00,24.8,18.6,30.40,WSW,250,0.0,0.0,77,0.00,,,0.00,0,Wunderground v.1.15,2013-01-14 23:19:00,
2013-01-14 17:20:00,24.7,18.5,30.40,WSW,250,0.0,0.0,77,0.00,,,0.00,0,Wunderground v.1.15,2013-01-14 23:20:00,
2013-01-14 17:25:00,24.6,18.4,30.40,WSW,250,0.0,0.0,77,0.00,,,0.00,0,Wunderground v.1.15,2013-01-14 23:25:00,
2013-01-14 17:26:00,24.5,18.6,30.40,WSW,250,0.0,0.0,78,0.00,,,0.00,0,Wunderground v.1.15,2013-01-14 23:26:00,
2013-01-14 17:30:00,24.1,18.8,30.40,WSW,250,0.0,0.0,80,0.00,,,0.00,0,Wunderground v.1.15,2013-01-14 23:30:00,
2013-01-14 17:31:00,24.0,19.0,30.40,WSW,250,0.0,0.0,81,0.00,,,0.00,0,Wunderground v.1.15,2013-01-14 23:31:00,
2013-01-14 17:32:00,23.8,18.8,30.40,WSW,250,0.0,0.0,81,0.00,,,0.00,0,Wunderground v.1.15,2013-01-14 23:32:00,
2013-01-14 17:35:00,23.5,18.8,30.40,WSW,250,0.0,0.0,82,0.00,,,0.00,0,Wunderground v.1.15,2013-01-14 23:35:00,
2013-01-14 17:36:00,23.5,18.8,30.40,WSW,250,0.0,0.0,82,0.00,,,0.00,0,Wunderground v.1.15,2013-01-14 23:36:00,
2013-01-14 17:40:00,23.1,18.4,30.40,WSW,250,0.0,0.0,82,0.00,,,0.00,0,Wunderground v.1.15,2013-01-14 23:40:00,
2013-01-14 17:41:00,23.1,18.4,30.40,WSW,250,0.0,0.0,82,0.00,,,0.00,0,Wunderground v.1.15,2013-01-14 23:41:00,
2013-01-14 17:46:00,22.9,17.9,30.40,WSW,250,0.0,0.0,81,0.00,,,0.00,0,Wunderground v.1.15,2013-01-14 23:46:00,
2013-01-14 17:47:00,22.8,17.8,30.40,WSW,250,0.0,0.0,81,0.00,,,0.00,0,Wunderground v.1.15,2013-01-14 23:47:00,
2013-01-14 17:51:00,22.7,17.5,30.40,WSW,250,0.0,0.0,80,0.00,,,0.00,0,Wunderground v.1.15,2013-01-14 23:51:00,
2013-01-14 17:52:00,22.7,17.5,30.40,WSW,250,0.0,0.0,80,0.00,,,0.00,0,Wunderground v.1.15,2013-01-14 23:52:00,
2013-01-14 17:53:00,22.8,17.6,30.40,WSW,250,0.0,0.0,80,0.00,,,0.00,0,Wunderground v.1.15,2013-01-14 23:53:00,
2013-01-14 17:57:00,22.9,17.9,30.40,WSW,250,0.0,0.0,81,0.00,,,0.00,0,Wunderground v.1.15,2013-01-14 23:57:00,
2013-01-14 17:58:00,22.9,17.9,30.40,WSW,250,0.0,0.0,81,0.00,,,0.00,0,Wunderground v.1.15,2013-01-14 23:58:00,
2013-01-14 17:59:00,22.9,17.9,30.40,WSW,250,0.0,0.0,81,0.00,,,0.00,0,Wunderground v.1.15,2013-01-14 23:59:00,
2013-01-14 18:02:00,22.8,18.1,30.40,WSW,250,0.0,0.0,82,0.00,,,0.00,0,Wunderground v.1.15,2013-01-15 00:02:00,
2013-01-14 18:03:00,22.8,18.1,30.40,WSW,250,0.0,0.0,82,0.00,,,0.00,0,Wunderground v.1.15,2013-01-15 00:03:00,
2013-01-14 18:05:00,22.8,18.1,30.40,WSW,250,0.0,0.0,82,0.00,,,0.00,0,Wunderground v.1.15,2013-01-15 00:05:00,
2013-01-14 18:08:00,23.0,18.0,30.40,WSW,250,0.0,0.0,81,0.00,,,0.00,0,Wunderground v.1.15,2013-01-15 00:08:00,
2013-01-14 18:10:00,23.0,17.7,30.40,WSW,250,0.0,0.0,80,0.00,,,0.00,0,Wunderground v.1.15,2013-01-15 00:10:00,
2013-01-14 18:11:00,23.1,17.6,30.40,WSW,250,0.0,0.0,79,0.00,,,0.00,0,Wunderground v.1.15,2013-01-15 00:11:00,
2013-01-14 18:13:00,23.1,17.6,30.40,WSW,250,0.0,0.0,79,0.00,,,0.00,0,Wunderground v.1.15,2013-01-15 00:13:00,
2013-01-14 18:15:00,22.9,16.8,30.40,WSW,250,0.0,0.0,77,0.00,,,0.00,0,Wunderground v.1.15,2013-01-15 00:15:00,
2013-01-14 18:18:00,22.7,16.6,30.40,WSW,250,0.0,0.0,77,0.00,,,0.00,0,Wunderground v.1.15,2013-01-15 00:18:00,
2013-01-14 18:20:00,22.7,16.6,30.40,WSW,250,0.0,0.0,77,0.00,,,0.00,0,Wunderground v.1.15,2013-01-15 00:20:00,
2013-01-14 18:21:00,22.6,16.8,30.40,WSW,250,0.0,0.0,78,0.00,,,0.00,0,Wunderground v.1.15,2013-01-15 00:21:00,
2013-01-14 18:23:00,22.6,16.8,30.40,WSW,250,0.0,0.0,78,0.00,,,0.00,0,Wunderground v.1.15,2013-01-15 00:23:00,
2013-01-14 18:24:00,22.5,16.7,30.40,WSW,250,0.0,0.0,78,0.00,,,0.00,0,Wunderground v.1.15,2013-01-15 00:24:00,
2013-01-14 18:25:00,22.4,16.9,30.40,WSW,250,0.0,0.0,79,0.00,,,0.00,0,Wunderground v.1.15,2013-01-15 00:25:00,
2013-01-14 18:29:00,22.1,16.9,30.40,WSW,250,0.0,0.0,80,0.00,,,0.00,0,Wunderground v.1.15,2013-01-15 00:29:00,
2013-01-14 18:30:00,22.0,16.8,30.40,WSW,250,0.0,0.0,80,0.00,,,0.00,0,Wunderground v.1.15,2013-01-15 00:30:00,
2013-01-14 18:31:00,22.0,16.8,30.40,WSW,250,0.0,0.0,80,0.00,,,0.00,0,Wunderground v.1.15,2013-01-15 00:31:00,
2013-01-14 18:34:00,21.9,17.0,30.40,WSW,250,0.0,0.0,81,0.00,,,0.00,0,Wunderground v.1.15,2013-01-15 00:34:00,
2013-01-14 18:35:00,22.0,16.8,30.40,WSW,250,0.0,0.0,80,0.00,,,0.00,0,Wunderground v.1.15,2013-01-15 00:35:00,
2013-01-14 18:36:00,22.1,16.9,30.40,WSW,250,0.0,0.0,80,0.00,,,0.00,0,Wunderground v.1.15,2013-01-15 00:36:00,
2013-01-14 18:37:00,22.3,16.8,30.40,WSW,250,0.0,0.0,79,0.00,,,0.00,0,Wunderground v.1.15,2013-01-15 00:37:00,
2013-01-14 18:40:00,22.4,16.6,30.41,WSW,250,0.0,0.0,78,0.00,,,0.00,0,Wunderground v.1.15,2013-01-15 00:40:00,
2013-01-14 18:42:00,22.4,16.6,30.41,WSW,250,0.0,0.0,78,0.00,,,0.00,0,Wunderground v.1.15,2013-01-15 00:42:00,
2013-01-14 18:43:00,22.3,16.8,30.40,WSW,250,0.0,0.0,79,0.00,,,0.00,0,Wunderground v.1.15,2013-01-15 00:43:00,
2013-01-14 18:45:00,22.2,16.7,30.41,WSW,250,0.0,0.0,79,0.00,,,0.00,0,Wunderground v.1.15,2013-01-15 00:45:00,
2013-01-14 18:48:00,21.9,17.0,30.41,WSW,250,0.0,0.0,81,0.00,,,0.00,0,Wunderground v.1.15,2013-01-15 00:48:00,
2013-01-14 18:50:00,21.7,17.1,30.41,WSW,250,0.0,0.0,82,0.00,,,0.00,0,Wunderground v.1.15,2013-01-15 00:50:00,
2013-01-14 18:51:00,21.6,17.0,30.41,WSW,250,0.0,0.0,82,0.00,,,0.00,0,Wunderground v.1.15,2013-01-15 00:51:00,
2013-01-14 18:53:00,21.5,17.1,30.41,WSW,250,0.0,0.0,83,0.00,,,0.00,0,Wunderground v.1.15,2013-01-15 00:53:00,
2013-01-14 18:56:00,21.3,16.9,30.41,WSW,250,0.0,0.0,83,0.00,,,0.00,0,Wunderground v.1.15,2013-01-15 00:56:00,
2013-01-14 18:57:00,21.2,16.8,30.41,WSW,250,0.0,0.0,83,0.00,,,0.00,0,Wunderground v.1.15,2013-01-15 00:57:00,
2013-01-14 18:58:00,21.1,17.0,30.41,WSW,250,0.0,0.0,84,0.00,,,0.00,0,Wunderground v.1.15,2013-01-15 00:58:00,
2013-01-14 19:00:00,20.9,16.8,30.41,WSW,250,0.0,0.0,84,0.00,,,0.00,0,Wunderground v.1.15,2013-01-15 01:00:00,
2013-01-14 19:01:00,20.8,17.0,30.41,WSW,250,0.0,0.0,85,0.00,,,0.00,0,Wunderground v.1.15,2013-01-15 01:01:00,
2013-01-14 19:03:00,20.6,16.8,30.41,WSW,250,0.0,0.0,85,0.00,,,0.00,0,Wunderground v.1.15,2013-01-15 01:03:00,
2013-01-14 19:04:00,20.6,16.8,30.41,WSW,250,0.0,0.0,85,0.00,,,0.00,0,Wunderground v.1.15,2013-01-15 01:04:00,
2013-01-14 19:05:00,20.5,17.0,30.42,WSW,250,0.0,0.0,86,0.00,,,0.00,0,Wunderground v.1.15,2013-01-15 01:05:00,
2013-01-14 19:07:00,20.3,16.8,30.42,WSW,250,0.0,0.0,86,0.00,,,0.00,0,Wunderground v.1.15,2013-01-15 01:07:00,
2013-01-14 19:08:00,20.2,16.7,30.42,WSW,250,0.0,0.0,86,0.00,,,0.00,0,Wunderground v.1.15,2013-01-15 01:08:00,
2013-01-14 19:11:00,19.9,16.4,30.42,WSW,250,0.0,0.0,86,0.00,,,0.00,0,Wunderground v.1.15,2013-01-15 01:11:00,
2013-01-14 19:12:00,19.8,16.3,30.42,WSW,250,0.0,0.0,86,0.00,,,0.00,0,Wunderground v.1.15,2013-01-15 01:12:00,
2013-01-14 19:14:00,19.9,16.4,30.42,WSW,250,0.0,0.0,86,0.00,,,0.00,0,Wunderground v.1.15,2013-01-15 01:14:00,
2013-01-14 19:17:00,20.0,15.9,30.42,WSW,250,0.0,0.0,84,0.00,,,0.00,0,Wunderground v.1.15,2013-01-15 01:17:00,
2013-01-14 19:18:00,20.0,15.9,30.42,WSW,250,0.0,0.0,84,0.00,,,0.00,0,Wunderground v.1.15,2013-01-15 01:18:00,
2013-01-14 19:19:00,20.0,15.9,30.41,WSW,250,0.0,0.0,84,0.00,,,0.00,0,Wunderground v.1.15,2013-01-15 01:19:00,
2013-01-14 19:22:00,20.1,15.8,30.41,WSW,250,0.0,0.0,83,0.00,,,0.00,0,Wunderground v.1.15,2013-01-15 01:22:00,
2013-01-14 19:24:00,20.1,15.5,30.41,WSW,250,0.0,0.0,82,0.00,,,0.00,0,Wunderground v.1.15,2013-01-15 01:24:00,
2013-01-14 19:28:00,20.0,15.4,30.41,WSW,250,0.0,0.0,82,0.00,,,0.00,0,Wunderground v.1.15,2013-01-15 01:28:00,
2013-01-14 19:29:00,19.9,15.6,30.42,WSW,250,0.0,0.0,83,0.00,,,0.00,0,Wunderground v.1.15,2013-01-15 01:29:00,
2013-01-14 19:30:00,19.8,15.5,30.42,WSW,250,0.0,0.0,83,0.00,,,0.00,0,Wunderground v.1.15,2013-01-15 01:30:00,
2013-01-14 19:34:00,19.5,15.2,30.42,WSW,250,0.0,0.0,83,0.00,,,0.00,0,Wunderground v.1.15,2013-01-15 01:34:00,
2013-01-14 19:36:00,19.5,15.5,30.41,WSW,250,0.0,0.0,84,0.00,,,0.00,0,Wunderground v.1.15,2013-01-15 01:36:00,
2013-01-14 19:37:00,19.4,15.4,30.41,WSW,250,0.0,0.0,84,0.00,,,0.00,0,Wunderground v.1.15,2013-01-15 01:37:00,
2013-01-14 19:41:00,19.4,15.4,30.41,WSW,250,0.0,0.0,84,0.00,,,0.00,0,Wunderground v.1.15,2013-01-15 01:41:00,
2013-01-14 19:42:00,19.5,15.5,30.41,WSW,250,0.0,0.0,84,0.00,,,0.00,0,Wunderground v.1.15,2013-01-15 01:42:00,
2013-01-14 19:43:00,19.5,15.5,30.41,WSW,250,0.0,0.0,84,0.00,,,0.00,0,Wunderground v.1.15,2013-01-15 01:43:00,
2013-01-14 19:47:00,19.6,15.6,30.41,WSW,250,0.0,0.0,84,0.00,,,0.00,0,Wunderground v.1.15,2013-01-15 01:47:00,
2013-01-14 19:48:00,19.7,15.4,30.41,WSW,250,0.0,0.0,83,0.00,,,0.00,0,Wunderground v.1.15,2013-01-15 01:48:00,
2013-01-14 19:52:00,19.8,15.5,30.41,WSW,250,0.0,0.0,83,0.00,,,0.00,0,Wunderground v.1.15,2013-01-15 01:52:00,
2013-01-14 19:53:00,19.8,15.2,30.41,WSW,250,0.0,0.0,82,0.00,,,0.00,0,Wunderground v.1.15,2013-01-15 01:53:00,
2013-01-14 19:54:00,19.8,15.2,30.41,WSW,250,0.0,0.0,82,0.00,,,0.00,0,Wunderground v.1.15,2013-01-15 01:54:00,
2013-01-14 19:58:00,19.8,15.2,30.41,WSW,250,0.0,0.0,82,0.00,,,0.00,0,Wunderground v.1.15,2013-01-15 01:58:00,
2013-01-14 19:59:00,19.8,15.2,30.41,WSW,250,0.0,0.0,82,0.00,,,0.00,0,Wunderground v.1.15,2013-01-15 01:59:00,
2013-01-14 20:01:00,19.7,14.8,30.41,WSW,250,0.0,0.0,81,0.00,,,0.00,0,Wunderground v.1.15,2013-01-15 02:01:00,
2013-01-14 20:03:00,19.6,14.7,30.41,WSW,250,0.0,0.0,81,0.00,,,0.00,0,Wunderground v.1.15,2013-01-15 02:03:00,
2013-01-14 20:04:00,19.6,14.7,30.41,WSW,250,0.0,0.0,81,0.00,,,0.00,0,Wunderground v.1.15,2013-01-15 02:04:00,
2013-01-14 20:06:00,19.5,14.6,30.41,WSW,250,0.0,0.0,81,0.00,,,0.00,0,Wunderground v.1.15,2013-01-15 02:06:00,
2013-01-14 20:09:00,19.3,14.4,30.41,WSW,250,0.0,0.0,81,0.00,,,0.00,0,Wunderground v.1.15,2013-01-15 02:09:00,
2013-01-14 20:11:00,19.1,14.2,30.41,WSW,250,0.0,0.0,81,0.00,,,0.00,0,Wunderground v.1.15,2013-01-15 02:11:00,
2013-01-14 20:14:00,18.8,13.9,30.41,WSW,250,0.0,0.0,81,0.00,,,0.00,0,Wunderground v.1.15,2013-01-15 02:14:00,
2013-01-14 20:17:00,18.9,14.0,30.41,WSW,250,0.0,0.0,81,0.00,,,0.00,0,Wunderground v.1.15,2013-01-15 02:17:00,
2013-01-14 20:19:00,19.1,14.2,30.41,WSW,250,0.0,0.0,81,0.00,,,0.00,0,Wunderground v.1.15,2013-01-15 02:19:00,
2013-01-14 20:22:00,19.3,14.4,30.41,WSW,250,0.0,0.0,81,0.00,,,0.00,0,Wunderground v.1.15,2013-01-15 02:22:00,
2013-01-14 20:23:00,19.3,14.4,30.41,WSW,250,0.0,0.0,81,0.00,,,0.00,0,Wunderground v.1.15,2013-01-15 02:23:00,
2013-01-14 20:25:00,19.4,14.2,30.40,WSW,250,0.0,0.0,80,0.00,,,0.00,0,Wunderground v.1.15,2013-01-15 02:25:00,
2013-01-14 20:27:00,19.6,14.4,30.40,WSW,250,0.0,0.0,80,0.00,,,0.00,0,Wunderground v.1.15,2013-01-15 02:27:00,
2013-01-14 20:28:00,19.7,14.2,30.40,WSW,250,0.0,0.0,79,0.00,,,0.00,0,Wunderground v.1.15,2013-01-15 02:28:00,
2013-01-14 20:31:00,19.7,14.2,30.41,WSW,250,0.0,0.0,79,0.00,,,0.00,0,Wunderground v.1.15,2013-01-15 02:31:00,
2013-01-14 20:32:00,19.7,14.0,30.41,WSW,250,0.0,0.0,78,0.00,,,0.00,0,Wunderground v.1.15,2013-01-15 02:32:00,
2013-01-14 20:33:00,19.7,14.0,30.41,WSW,250,0.0,0.0,78,0.00,,,0.00,0,Wunderground v.1.15,2013-01-15 02:33:00,
2013-01-14 20:37:00,19.5,13.8,30.40,WSW,250,0.0,0.0,78,0.00,,,0.00,0,Wunderground v.1.15,2013-01-15 02:37:00,
2013-01-14 20:38:00,19.5,13.8,30.40,WSW,250,0.0,0.0,78,0.00,,,0.00,0,Wunderground v.1.15,2013-01-15 02:38:00,
2013-01-14 20:39:00,19.5,13.8,30.40,WSW,250,0.0,0.0,78,0.00,,,0.00,0,Wunderground v.1.15,2013-01-15 02:39:00,
2013-01-14 20:43:00,19.5,13.8,30.40,WSW,250,0.0,0.0,78,0.00,,,0.00,0,Wunderground v.1.15,2013-01-15 02:43:00,
2013-01-14 20:44:00,19.5,13.8,30.40,WSW,250,0.0,0.0,78,0.00,,,0.00,0,Wunderground v.1.15,2013-01-15 02:44:00,
2013-01-14 20:49:00,19.0,13.6,30.40,WSW,250,0.0,0.0,79,0.00,,,0.00,0,Wunderground v.1.15,2013-01-15 02:49:00,
2013-01-14 20:50:00,18.8,13.4,30.40,WSW,250,0.0,0.0,79,0.00,,,0.00,0,Wunderground v.1.15,2013-01-15 02:50:00,
2013-01-14 20:54:00,18.4,13.3,30.40,WSW,250,0.0,0.0,80,0.00,,,0.00,0,Wunderground v.1.15,2013-01-15 02:54:00,
2013-01-14 20:55:00,18.4,13.3,30.40,WSW,250,0.0,0.0,80,0.00,,,0.00,0,Wunderground v.1.15,2013-01-15 02:55:00,
2013-01-14 20:56:00,18.4,13.3,30.40,WSW,250,0.0,0.0,80,0.00,,,0.00,0,Wunderground v.1.15,2013-01-15 02:56:00,
2013-01-14 21:00:00,18.4,13.3,30.40,WSW,250,0.0,0.0,80,0.00,,,0.00,0,Wunderground v.1.15,2013-01-15 03:00:00,
2013-01-14 21:01:00,18.4,13.3,30.40,WSW,250,0.0,0.0,80,0.00,,,0.00,0,Wunderground v.1.15,2013-01-15 03:01:00,
2013-01-14 21:03:00,18.4,13.3,30.40,WSW,250,0.0,0.0,80,0.00,,,0.00,0,Wunderground v.1.15,2013-01-15 03:03:00,
2013-01-14 21:07:00,18.3,13.2,30.39,WSW,250,0.0,0.0,80,0.00,,,0.00,0,Wunderground v.1.15,2013-01-15 03:07:00,
2013-01-14 21:10:00,18.0,12.9,30.40,WSW,250,0.0,0.0,80,0.00,,,0.00,0,Wunderground v.1.15,2013-01-15 03:10:00,
2013-01-14 21:12:00,17.8,12.7,30.40,WSW,250,0.0,0.0,80,0.00,,,0.00,0,Wunderground v.1.15,2013-01-15 03:12:00,
2013-01-14 21:14:00,17.7,12.9,30.40,WSW,250,0.0,0.0,81,0.00,,,0.00,0,Wunderground v.1.15,2013-01-15 03:14:00,
2013-01-14 21:15:00,17.6,12.8,30.39,WSW,250,0.0,0.0,81,0.00,,,0.00,0,Wunderground v.1.15,2013-01-15 03:15:00,
2013-01-14 21:18:00,17.3,12.5,30.40,WSW,250,0.0,0.0,81,0.00,,,0.00,0,Wunderground v.1.15,2013-01-15 03:18:00,
2013-01-14 21:20:00,17.3,12.7,30.40,WSW,250,0.0,0.0,82,0.00,,,0.00,0,Wunderground v.1.15,2013-01-15 03:20:00,
2013-01-14 21:21:00,17.3,12.5,30.40,WSW,250,0.0,0.0,81,0.00,,,0.00,0,Wunderground v.1.15,2013-01-15 03:21:00,
2013-01-14 21:24:00,17.3,12.7,30.40,WSW,250,0.0,0.0,82,0.00,,,0.00,0,Wunderground v.1.15,2013-01-15 03:24:00,
2013-01-14 21:26:00,17.2,12.4,30.40,WSW,250,0.0,0.0,81,0.00,,,0.00,0,Wunderground v.1.15,2013-01-15 03:26:00,
2013-01-14 21:28:00,17.0,12.2,30.40,WSW,250,0.0,0.0,81,0.00,,,0.00,0,Wunderground v.1.15,2013-01-15 03:28:00,
2013-01-14 21:29:00,17.0,12.5,30.40,WSW,250,0.0,0.0,82,0.00,,,0.00,0,Wunderground v.1.15,2013-01-15 03:29:00,
2013-01-14 21:31:00,17.0,12.5,30.40,WSW,250,0.0,0.0,82,0.00,,,0.00,0,Wunderground v.1.15,2013-01-15 03:31:00,
2013-01-14 21:36:00,17.1,12.6,30.40,WSW,250,0.0,0.0,82,0.00,,,0.00,0,Wunderground v.1.15,2013-01-15 03:36:00,
2013-01-14 21:37:00,17.0,12.5,30.40,WSW,250,0.0,0.0,82,0.00,,,0.00,0,Wunderground v.1.15,2013-01-15 03:37:00,
2013-01-14 21:41:00,17.1,12.6,30.40,WSW,250,0.0,0.0,82,0.00,,,0.00,0,Wunderground v.1.15,2013-01-15 03:41:00,
2013-01-14 21:42:00,17.1,12.6,30.40,WSW,250,0.0,0.0,82,0.00,,,0.00,0,Wunderground v.1.15,2013-01-15 03:42:00,
2013-01-14 21:43:00,17.2,12.6,30.40,WSW,250,0.0,0.0,82,0.00,,,0.00,0,Wunderground v.1.15,2013-01-15 03:43:00,
2013-01-14 21:47:00,17.3,12.7,30.39,WSW,250,0.0,0.0,82,0.00,,,0.00,0,Wunderground v.1.15,2013-01-15 03:47:00,
2013-01-14 21:50:00,17.4,12.6,30.39,WSW,250,0.0,0.0,81,0.00,,,0.00,0,Wunderground v.1.15,2013-01-15 03:50:00,
2013-01-14 21:52:00,17.4,12.6,30.39,WSW,250,0.0,0.0,81,0.00,,,0.00,0,Wunderground v.1.15,2013-01-15 03:52:00,
2013-01-14 21:53:00,17.4,12.6,30.39,WSW,250,0.0,0.0,81,0.00,,,0.00,0,Wunderground v.1.15,2013-01-15 03:53:00,
2013-01-14 21:56:00,17.4,12.6,30.39,WSW,250,0.0,0.0,81,0.00,,,0.00,0,Wunderground v.1.15,2013-01-15 03:56:00,
2013-01-14 21:57:00,17.4,12.6,30.39,WSW,250,0.0,0.0,81,0.00,,,0.00,0,Wunderground v.1.15,2013-01-15 03:57:00,
2013-01-14 22:01:00,17.7,12.9,30.39,WSW,250,0.0,0.0,81,0.00,,,0.00,0,Wunderground v.1.15,2013-01-15 04:01:00,
2013-01-14 22:03:00,17.8,13.0,30.39,WSW,250,0.0,0.0,81,0.00,,,0.00,0,Wunderground v.1.15,2013-01-15 04:03:00,
2013-01-14 22:06:00,17.8,12.7,30.39,WSW,250,0.0,0.0,80,0.00,,,0.00,0,Wunderground v.1.15,2013-01-15 04:06:00,
2013-01-14 22:07:00,17.9,12.8,30.39,WSW,250,0.0,0.0,80,0.00,,,0.00,0,Wunderground v.1.15,2013-01-15 04:07:00,
2013-01-14 22:09:00,17.9,12.8,30.39,WSW,250,0.0,0.0,80,0.00,,,0.00,0,Wunderground v.1.15,2013-01-15 04:09:00,
2013-01-14 22:11:00,17.9,12.8,30.39,WSW,250,0.0,0.0,80,0.00,,,0.00,0,Wunderground v.1.15,2013-01-15 04:11:00,
2013-01-14 22:12:00,17.8,12.7,30.39,WSW,250,0.0,0.0,80,0.00,,,0.00,0,Wunderground v.1.15,2013-01-15 04:12:00,
2013-01-14 22:15:00,17.7,12.6,30.39,WSW,250,0.0,0.0,80,0.00,,,0.00,0,Wunderground v.1.15,2013-01-15 04:15:00,
2013-01-14 22:16:00,17.6,12.5,30.39,WSW,250,0.0,0.0,80,0.00,,,0.00,0,Wunderground v.1.15,2013-01-15 04:16:00,
2013-01-14 22:17:00,17.6,12.2,30.39,WSW,250,0.0,0.0,79,0.00,,,0.00,0,Wunderground v.1.15,2013-01-15 04:17:00,
2013-01-14 22:18:00,17.4,12.3,30.39,WSW,250,0.0,0.0,80,0.00,,,0.00,0,Wunderground v.1.15,2013-01-15 04:18:00,
2013-01-14 22:22:00,17.1,11.7,30.39,WSW,250,0.0,0.0,79,0.00,,,0.00,0,Wunderground v.1.15,2013-01-15 04:22:00,
2013-01-14 22:23:00,17.0,11.9,30.39,WSW,250,0.0,0.0,80,0.00,,,0.00,0,Wunderground v.1.15,2013-01-15 04:23:00,
2013-01-14 22:27:00,16.9,11.8,30.39,WSW,250,0.0,0.0,80,0.00,,,0.00,0,Wunderground v.1.15,2013-01-15 04:27:00,
2013-01-14 22:28:00,16.9,11.8,30.39,WSW,250,0.0,0.0,80,0.00,,,0.00,0,Wunderground v.1.15,2013-01-15 04:28:00,
2013-01-14 22:32:00,16.8,11.7,30.39,WSW,250,1.0,1.0,80,0.00,,,0.00,0,Wunderground v.1.15,2013-01-15 04:32:00,
2013-01-14 22:34:00,16.9,12.1,30.39,WSW,250,0.0,1.0,81,0.00,,,0.00,0,Wunderground v.1.15,2013-01-15 04:34:00,
2013-01-14 22:37:00,17.2,12.4,30.39,SSW,209,2.0,2.0,81,0.00,,,0.00,0,Wunderground v.1.15,2013-01-15 04:37:00,
2013-01-14 22:39:00,17.4,12.6,30.39,South,184,3.0,3.0,81,0.00,,,0.00,0,Wunderground v.1.15,2013-01-15 04:39:00,
2013-01-14 22:40:00,17.5,12.7,30.39,SSE,167,2.0,3.0,81,0.00,,,0.00,0,Wunderground v.1.15,2013-01-15 04:40:00,
2013-01-14 22:44:00,17.7,12.6,30.40,SSE,167,0.0,3.0,80,0.00,,,0.00,0,Wunderground v.1.15,2013-01-15 04:44:00,
2013-01-14 22:45:00,17.6,12.5,30.39,SSE,167,0.0,3.0,80,0.00,,,0.00,0,Wunderground v.1.15,2013-01-15 04:45:00,
2013-01-14 22:46:00,17.6,12.2,30.40,SSE,167,0.0,3.0,79,0.00,,,0.00,0,Wunderground v.1.15,2013-01-15 04:46:00,
2013-01-14 22:49:00,16.9,11.8,30.39,SSE,167,0.0,3.0,80,0.00,,,0.00,0,Wunderground v.1.15,2013-01-15 04:49:00,
2013-01-14 22:51:00,16.7,11.6,30.39,SSE,167,2.0,2.0,80,0.00,,,0.00,0,Wunderground v.1.15,2013-01-15 04:51:00,
2013-01-14 22:52:00,16.5,11.4,30.39,SSE,167,1.0,2.0,80,0.00,,,0.00,0,Wunderground v.1.15,2013-01-15 04:52:00,
2013-01-14 22:55:00,16.6,11.8,30.39,SSE,167,0.0,2.0,81,0.00,,,0.00,0,Wunderground v.1.15,2013-01-15 04:55:00,
2013-01-14 22:57:00,16.6,11.8,30.39,SSE,167,0.0,2.0,81,0.00,,,0.00,0,Wunderground v.1.15,2013-01-15 04:57:00,
2013-01-14 22:59:00,16.5,11.7,30.39,SSE,167,0.0,2.0,81,0.00,,,0.00,0,Wunderground v.1.15,2013-01-15 04:59:00,
2013-01-14 23:00:00,16.4,11.6,30.39,SSE,167,0.0,1.0,81,0.00,,,0.00,0,Wunderground v.1.15,2013-01-15 05:00:00,
2013-01-14 23:01:00,16.4,11.6,30.39,SSE,167,0.0,1.0,81,0.00,,,0.00,0,Wunderground v.1.15,2013-01-15 05:01:00,
2013-01-14 23:02:00,16.4,11.6,30.39,SSE,167,0.0,1.0,81,0.00,,,0.00,0,Wunderground v.1.15,2013-01-15 05:02:00,
2013-01-14 23:03:00,16.3,11.5,30.39,SSE,167,0.0,1.0,81,0.00,,,0.00,0,Wunderground v.1.15,2013-01-15 05:03:00,
2013-01-14 23:05:00,16.2,11.4,30.39,SSE,167,0.0,1.0,81,0.00,,,0.00,0,Wunderground v.1.15,2013-01-15 05:05:00,
2013-01-14 23:06:00,16.2,11.4,30.39,SSE,167,0.0,1.0,81,0.00,,,0.00,0,Wunderground v.1.15,2013-01-15 05:06:00,
2013-01-14 23:07:00,16.1,11.6,30.39,SSE,167,0.0,1.0,82,0.00,,,0.00,0,Wunderground v.1.15,2013-01-15 05:07:00,
2013-01-14 23:08:00,16.1,11.6,30.39,SSE,167,0.0,1.0,82,0.00,,,0.00,0,Wunderground v.1.15,2013-01-15 05:08:00,
2013-01-14 23:11:00,15.9,11.4,30.39,SSE,167,0.0,0.0,82,0.00,,,0.00,0,Wunderground v.1.15,2013-01-15 05:11:00,
2013-01-14 23:12:00,15.8,11.3,30.39,SSE,167,0.0,0.0,82,0.00,,,0.00,0,Wunderground v.1.15,2013-01-15 05:12:00,
2013-01-14 23:13:00,15.8,11.3,30.39,SSE,167,0.0,0.0,82,0.00,,,0.00,0,Wunderground v.1.15,2013-01-15 05:13:00,
2013-01-14 23:14:00,15.8,11.3,30.39,SSE,167,0.0,0.0,82,0.00,,,0.00,0,Wunderground v.1.15,2013-01-15 05:14:00,
2013-01-14 23:16:00,15.8,11.3,30.39,SSE,167,0.0,0.0,82,0.00,,,0.00,0,Wunderground v.1.15,2013-01-15 05:16:00,
2013-01-14 23:18:00,15.8,11.3,30.39,SSE,167,0.0,0.0,82,0.00,,,0.00,0,Wunderground v.1.15,2013-01-15 05:18:00,
2013-01-14 23:19:00,15.8,11.3,30.39,SSE,167,0.0,0.0,82,0.00,,,0.00,0,Wunderground v.1.15,2013-01-15 05:19:00,
2013-01-14 23:21:00,15.8,11.3,30.39,SSE,167,0.0,0.0,82,0.00,,,0.00,0,Wunderground v.1.15,2013-01-15 05:21:00,
2013-01-14 23:25:00,15.6,11.1,30.39,SSE,167,0.0,0.0,82,0.00,,,0.00,0,Wunderground v.1.15,2013-01-15 05:25:00,
2013-01-14 23:26:00,15.5,11.0,30.39,SSE,167,0.0,0.0,82,0.00,,,0.00,0,Wunderground v.1.15,2013-01-15 05:26:00,
2013-01-14 23:28:00,15.4,10.9,30.39,SSE,167,0.0,0.0,82,0.00,,,0.00,0,Wunderground v.1.15,2013-01-15 05:28:00,
2013-01-14 23:32:00,15.0,10.8,30.39,SSE,167,0.0,0.0,83,0.00,,,0.00,0,Wunderground v.1.15,2013-01-15 05:32:00,
2013-01-14 23:33:00,14.9,10.7,30.39,SSE,167,0.0,0.0,83,0.00,,,0.00,0,Wunderground v.1.15,2013-01-15 05:33:00,
2013-01-14 23:34:00,14.9,10.7,30.39,SSE,167,0.0,0.0,83,0.00,,,0.00,0,Wunderground v.1.15,2013-01-15 05:34:00,
2013-01-14 23:36:00,14.8,10.8,30.39,SSE,167,0.0,0.0,84,0.00,,,0.00,0,Wunderground v.1.15,2013-01-15 05:36:00,
2013-01-14 23:38:00,14.8,10.8,30.39,SSE,167,0.0,0.0,84,0.00,,,0.00,0,Wunderground v.1.15,2013-01-15 05:38:00,
2013-01-14 23:39:00,14.8,10.8,30.39,SSE,167,0.0,0.0,84,0.00,,,0.00,0,Wunderground v.1.15,2013-01-15 05:39:00,
2013-01-14 23:40:00,14.8,10.8,30.39,SSE,167,0.0,0.0,84,0.00,,,0.00,0,Wunderground v.1.15,2013-01-15 05:40:00,
2013-01-14 23:41:00,14.8,10.8,30.39,SSE,167,0.0,0.0,84,0.00,,,0.00,0,Wunderground v.1.15,2013-01-15 05:41:00,
2013-01-14 23:43:00,14.6,10.6,30.39,SSE,167,0.0,0.0,84,0.00,,,0.00,0,Wunderground v.1.15,2013-01-15 05:43:00,
2013-01-14 23:45:00,14.5,10.5,30.39,SSE,167,0.0,0.0,84,0.00,,,0.00,0,Wunderground v.1.15,2013-01-15 05:45:00,
2013-01-14 23:46:00,14.5,10.5,30.39,SSE,167,0.0,0.0,84,0.00,,,0.00,0,Wunderground v.1.15,2013-01-15 05:46:00,
2013-01-14 23:49:00,14.7,11.0,30.39,SSE,167,0.0,0.0,85,0.00,,,0.00,0,Wunderground v.1.15,2013-01-15 05:49:00,
2013-01-14 23:50:00,14.7,11.0,30.39,SSE,167,0.0,0.0,85,0.00,,,0.00,0,Wunderground v.1.15,2013-01-15 05:50:00,
2013-01-14 23:54:00,14.9,10.9,30.39,SSE,167,0.0,0.0,84,0.00,,,0.00,0,Wunderground v.1.15,2013-01-15 05:54:00,
2013-01-14 23:56:00,14.8,10.8,30.39,SSE,167,0.0,0.0,84,0.00,,,0.00,0,Wunderground v.1.15,2013-01-15 05:56:00,
2013-01-14 23:59:00,14.6,10.6,30.39,SSE,167,0.0,0.0,84,0.00,,,0.00,0,Wunderground v.1.15,2013-01-15 05:59:00,